UAE334 OMDB-RPLL
Flight info
| Callsign | UAE334 |
|---|---|
| Flight time | 7h 50m |
| Altitude | 33000 |
| Route | IVURO M428 MUNGA A777 VAXIM L301 RASKI L639 BPL A791 CEA B465 CTG A599 LINSO/K0928S1005 A599 POU B330 TAMOT/N0505F330 B330 BIGEX DCT POVAM DCT NOPER V642 NOMAN A461 AVMUP W16 TADEL |
| Aircraft | B77W/H-SDE1E2E3FGHIJ2J3J4J5M1RWXY/LB1D1 |
Departure
| Time | 2026-04-24 06:12 |
|---|---|
| Airport | Dubai International Airport (OMDB) |
Arrival
| Time | 2026-04-24 14:02 |
|---|---|
| Airport | Ninoy Aquino International Airport (RPLL) |
| Time | Latitude | Longitude | Altitude | Speed | Heading |
|---|---|---|---|---|---|
| 2026-04-24 05:47 | 25.25134 | 55.35477 | 31 ft | 0 kts | 31° |
| 2026-04-24 05:55 | 25.25124 | 55.35470 | 26 ft | 4 kts | 31° |
| 2026-04-24 05:55 | 25.25101 | 55.35455 | 29 ft | 4 kts | 31° |
| 2026-04-24 05:55 | 25.25081 | 55.35441 | 31 ft | 4 kts | 17° |
| 2026-04-24 05:56 | 25.25060 | 55.35444 | 31 ft | 4 kts | 312° |
| 2026-04-24 05:56 | 25.25045 | 55.35467 | 31 ft | 3 kts | 302° |
| 2026-04-24 05:56 | 25.25044 | 55.35470 | 31 ft | 0 kts | 302° |
| 2026-04-24 06:00 | 25.25046 | 55.35466 | 26 ft | 2 kts | 302° |
| 2026-04-24 06:00 | 25.25056 | 55.35449 | 29 ft | 7 kts | 303° |
| 2026-04-24 06:00 | 25.25105 | 55.35364 | 27 ft | 16 kts | 302° |
| 2026-04-24 06:00 | 25.25165 | 55.35263 | 30 ft | 16 kts | 308° |
| 2026-04-24 06:01 | 25.25231 | 55.35167 | 29 ft | 16 kts | 303° |
| 2026-04-24 06:01 | 25.25287 | 55.35067 | 28 ft | 15 kts | 302° |
| 2026-04-24 06:01 | 25.25342 | 55.34970 | 30 ft | 15 kts | 302° |
| 2026-04-24 06:01 | 25.25415 | 55.34895 | 29 ft | 15 kts | 345° |
| 2026-04-24 06:02 | 25.25510 | 55.34929 | 29 ft | 15 kts | 28° |
| 2026-04-24 06:02 | 25.25573 | 55.34970 | 30 ft | 8 kts | 31° |
| 2026-04-24 06:02 | 25.25615 | 55.34998 | 29 ft | 4 kts | 31° |
| 2026-04-24 06:02 | 25.25631 | 55.35008 | 29 ft | 2 kts | 31° |
| 2026-04-24 06:03 | 25.25661 | 55.35028 | 29 ft | 10 kts | 31° |
| 2026-04-24 06:03 | 25.25722 | 55.35068 | 30 ft | 10 kts | 31° |
| 2026-04-24 06:03 | 25.25753 | 55.35121 | 31 ft | 9 kts | 97° |
| 2026-04-24 06:03 | 25.25745 | 55.35187 | 30 ft | 9 kts | 63° |
| 2026-04-24 06:04 | 25.25798 | 55.35235 | 29 ft | 11 kts | 31° |
| 2026-04-24 06:04 | 25.25867 | 55.35280 | 32 ft | 12 kts | 31° |
| 2026-04-24 06:04 | 25.25944 | 55.35331 | 32 ft | 13 kts | 31° |
| 2026-04-24 06:04 | 25.26007 | 55.35403 | 25 ft | 13 kts | 68° |
| 2026-04-24 06:05 | 25.26007 | 55.35501 | 26 ft | 13 kts | 103° |
| 2026-04-24 06:05 | 25.25966 | 55.35597 | 26 ft | 14 kts | 121° |
| 2026-04-24 06:05 | 25.25903 | 55.35709 | 26 ft | 20 kts | 122° |
| 2026-04-24 06:05 | 25.25831 | 55.35836 | 27 ft | 20 kts | 122° |
| 2026-04-24 06:06 | 25.25752 | 55.35977 | 27 ft | 23 kts | 122° |
| 2026-04-24 06:06 | 25.25667 | 55.36130 | 27 ft | 23 kts | 121° |
| 2026-04-24 06:06 | 25.25581 | 55.36283 | 27 ft | 23 kts | 122° |
| 2026-04-24 06:06 | 25.25494 | 55.36435 | 27 ft | 23 kts | 122° |
| 2026-04-24 06:07 | 25.25409 | 55.36587 | 26 ft | 23 kts | 121° |
| 2026-04-24 06:07 | 25.25324 | 55.36740 | 26 ft | 23 kts | 122° |
| 2026-04-24 06:07 | 25.25238 | 55.36892 | 27 ft | 23 kts | 122° |
| 2026-04-24 06:07 | 25.25152 | 55.37044 | 27 ft | 22 kts | 122° |
| 2026-04-24 06:08 | 25.25078 | 55.37176 | 28 ft | 20 kts | 122° |
| 2026-04-24 06:08 | 25.25004 | 55.37307 | 28 ft | 20 kts | 122° |
| 2026-04-24 06:08 | 25.24930 | 55.37438 | 28 ft | 20 kts | 122° |
| 2026-04-24 06:08 | 25.24857 | 55.37570 | 28 ft | 20 kts | 121° |
| 2026-04-24 06:09 | 25.24788 | 55.37692 | 28 ft | 17 kts | 122° |
| 2026-04-24 06:09 | 25.24726 | 55.37801 | 27 ft | 15 kts | 122° |
| 2026-04-24 06:09 | 25.24683 | 55.37876 | 27 ft | 8 kts | 122° |
| 2026-04-24 06:09 | 25.24657 | 55.37925 | 27 ft | 7 kts | 112° |
| 2026-04-24 06:10 | 25.24683 | 55.37972 | 28 ft | 8 kts | 34° |
| 2026-04-24 06:10 | 25.24730 | 55.38000 | 29 ft | 8 kts | 30° |
| 2026-04-24 06:10 | 25.24760 | 55.38019 | 30 ft | 7 kts | 32° |
| 2026-04-24 06:11 | 25.24835 | 55.37974 | 30 ft | 6 kts | 301° |
| 2026-04-24 06:11 | 25.24855 | 55.37938 | 30 ft | 8 kts | 301° |
| 2026-04-24 06:11 | 25.24957 | 55.37755 | 30 ft | 58 kts | 301° |
| 2026-04-24 06:11 | 25.25285 | 55.37164 | 31 ft | 121 kts | 301° |
| 2026-04-24 06:12 | 25.25824 | 55.36194 | 30 ft | 173 kts | 302° |
| 2026-04-24 06:12 | 25.26520 | 55.34938 | 142 ft | 200 kts | 302° |
| 2026-04-24 06:12 | 25.27192 | 55.33623 | 715 ft | 198 kts | 301° |
| 2026-04-24 06:12 | 25.27905 | 55.32318 | 1219 ft | 198 kts | 304° |
| 2026-04-24 06:13 | 25.28644 | 55.31022 | 1751 ft | 202 kts | 304° |
| 2026-04-24 06:13 | 25.29604 | 55.29827 | 1892 ft | 218 kts | 333° |
| 2026-04-24 06:13 | 25.31120 | 55.29444 | 2078 ft | 234 kts | 2° |
| 2026-04-24 06:13 | 25.32782 | 55.29522 | 2251 ft | 252 kts | 2° |
| 2026-04-24 06:14 | 25.34596 | 55.29575 | 2510 ft | 273 kts | 2° |
| 2026-04-24 06:14 | 25.36572 | 55.29634 | 2726 ft | 296 kts | 2° |
| 2026-04-24 06:14 | 25.38687 | 55.29773 | 2865 ft | 312 kts | 11° |
| 2026-04-24 06:14 | 25.40700 | 55.30804 | 3038 ft | 332 kts | 41° |
| 2026-04-24 06:15 | 25.42195 | 55.32775 | 3361 ft | 340 kts | 53° |
| 2026-04-24 06:15 | 25.43641 | 55.34900 | 3808 ft | 349 kts | 51° |
| 2026-04-24 06:15 | 25.45153 | 55.37016 | 4467 ft | 353 kts | 51° |
| 2026-04-24 06:15 | 25.46706 | 55.39143 | 5103 ft | 358 kts | 51° |
| 2026-04-24 06:16 | 25.48177 | 55.41369 | 5524 ft | 362 kts | 63° |
| 2026-04-24 06:16 | 25.48824 | 55.44077 | 5970 ft | 369 kts | 90° |
| 2026-04-24 06:16 | 25.48363 | 55.46842 | 6577 ft | 365 kts | 110° |
| 2026-04-24 06:16 | 25.47583 | 55.49541 | 6998 ft | 373 kts | 108° |
| 2026-04-24 06:17 | 25.46894 | 55.52325 | 7608 ft | 377 kts | 106° |
| 2026-04-24 06:17 | 25.46244 | 55.55159 | 8206 ft | 382 kts | 105° |
| 2026-04-24 06:17 | 25.45604 | 55.58031 | 8797 ft | 386 kts | 105° |
| 2026-04-24 06:17 | 25.44964 | 55.60929 | 9401 ft | 390 kts | 105° |
| 2026-04-24 06:18 | 25.44318 | 55.63860 | 9999 ft | 394 kts | 105° |
| 2026-04-24 06:18 | 25.43666 | 55.66812 | 10624 ft | 396 kts | 105° |
| 2026-04-24 06:18 | 25.43008 | 55.69782 | 11270 ft | 399 kts | 105° |
| 2026-04-24 06:18 | 25.42344 | 55.72777 | 11991 ft | 402 kts | 105° |
| 2026-04-24 06:19 | 25.41674 | 55.75787 | 12777 ft | 404 kts | 105° |
| 2026-04-24 06:19 | 25.41001 | 55.78811 | 13534 ft | 407 kts | 105° |
| 2026-04-24 06:19 | 25.40321 | 55.81863 | 14189 ft | 411 kts | 104° |
| 2026-04-24 06:19 | 25.39633 | 55.84946 | 14807 ft | 415 kts | 104° |
| 2026-04-24 06:20 | 25.38936 | 55.88063 | 15424 ft | 420 kts | 104° |
| 2026-04-24 06:20 | 25.38232 | 55.91212 | 16060 ft | 423 kts | 104° |
| 2026-04-24 06:20 | 25.37522 | 55.94386 | 16690 ft | 427 kts | 104° |
| 2026-04-24 06:20 | 25.36804 | 55.97589 | 17275 ft | 432 kts | 104° |
| 2026-04-24 06:21 | 25.36079 | 56.00823 | 17870 ft | 436 kts | 104° |
| 2026-04-24 06:21 | 25.35344 | 56.04096 | 18427 ft | 440 kts | 104° |
| 2026-04-24 06:21 | 25.34602 | 56.07396 | 18944 ft | 444 kts | 104° |
| 2026-04-24 06:21 | 25.33856 | 56.10711 | 19484 ft | 447 kts | 104° |
| 2026-04-24 06:22 | 25.33101 | 56.14059 | 20014 ft | 450 kts | 105° |
| 2026-04-24 06:22 | 25.32242 | 56.17391 | 20529 ft | 453 kts | 109° |
| 2026-04-24 06:22 | 25.31173 | 56.20677 | 21040 ft | 456 kts | 111° |
| 2026-04-24 06:22 | 25.30052 | 56.23971 | 21504 ft | 460 kts | 111° |
| 2026-04-24 06:23 | 25.28943 | 56.27246 | 22019 ft | 463 kts | 111° |
| 2026-04-24 06:23 | 25.27829 | 56.30595 | 22547 ft | 466 kts | 111° |
| 2026-04-24 06:23 | 25.26722 | 56.33971 | 23034 ft | 469 kts | 111° |
| 2026-04-24 06:23 | 25.25610 | 56.37372 | 23508 ft | 472 kts | 111° |
| 2026-04-24 06:24 | 25.24486 | 56.40794 | 23851 ft | 477 kts | 111° |
| 2026-04-24 06:24 | 25.23346 | 56.44248 | 24222 ft | 480 kts | 111° |
| 2026-04-24 06:24 | 25.22197 | 56.47724 | 24617 ft | 483 kts | 111° |
| 2026-04-24 06:24 | 25.21045 | 56.51208 | 25017 ft | 485 kts | 111° |
| 2026-04-24 06:25 | 25.19885 | 56.54717 | 25406 ft | 488 kts | 111° |
| 2026-04-24 06:25 | 25.18716 | 56.58249 | 25779 ft | 491 kts | 111° |
| 2026-04-24 06:25 | 25.17487 | 56.61774 | 26148 ft | 494 kts | 113° |
| 2026-04-24 06:25 | 25.16170 | 56.65286 | 26519 ft | 496 kts | 114° |
| 2026-04-24 06:26 | 25.14814 | 56.68797 | 26891 ft | 499 kts | 114° |
| 2026-04-24 06:26 | 25.13444 | 56.72323 | 27245 ft | 501 kts | 114° |
| 2026-04-24 06:26 | 25.12073 | 56.75875 | 27591 ft | 504 kts | 114° |
| 2026-04-24 06:26 | 25.10705 | 56.79444 | 27932 ft | 507 kts | 114° |
| 2026-04-24 06:27 | 25.09337 | 56.83037 | 28247 ft | 510 kts | 113° |
| 2026-04-24 06:27 | 25.07964 | 56.86657 | 28589 ft | 511 kts | 113° |
| 2026-04-24 06:27 | 25.06594 | 56.90275 | 28968 ft | 512 kts | 113° |
| 2026-04-24 06:27 | 25.05218 | 56.93909 | 29282 ft | 514 kts | 113° |
| 2026-04-24 06:28 | 25.03834 | 56.97559 | 29552 ft | 517 kts | 113° |
| 2026-04-24 06:28 | 25.02443 | 57.01220 | 29834 ft | 519 kts | 113° |
| 2026-04-24 06:28 | 25.01051 | 57.04883 | 30155 ft | 518 kts | 113° |
| 2026-04-24 06:28 | 24.99656 | 57.08545 | 30464 ft | 518 kts | 113° |
| 2026-04-24 06:29 | 24.98259 | 57.12212 | 30753 ft | 519 kts | 113° |
| 2026-04-24 06:29 | 24.96862 | 57.15874 | 31109 ft | 518 kts | 113° |
| 2026-04-24 06:29 | 24.95464 | 57.19535 | 31391 ft | 518 kts | 113° |
| 2026-04-24 06:29 | 24.94067 | 57.23192 | 31628 ft | 520 kts | 113° |
| 2026-04-24 06:30 | 24.92662 | 57.26866 | 31863 ft | 521 kts | 113° |
| 2026-04-24 06:30 | 24.91253 | 57.30547 | 32121 ft | 521 kts | 113° |
| 2026-04-24 06:30 | 24.89844 | 57.34225 | 32384 ft | 522 kts | 113° |
| 2026-04-24 06:30 | 24.88432 | 57.37909 | 32639 ft | 522 kts | 112° |
| 2026-04-24 06:31 | 24.87018 | 57.41593 | 32811 ft | 524 kts | 112° |
| 2026-04-24 06:31 | 24.84167 | 57.49012 | 32874 ft | 525 kts | 112° |
| 2026-04-24 06:32 | 24.81333 | 57.56376 | 32869 ft | 520 kts | 112° |
| 2026-04-24 06:32 | 24.78509 | 57.63702 | 32873 ft | 520 kts | 112° |
| 2026-04-24 06:33 | 24.75702 | 57.70972 | 32879 ft | 519 kts | 112° |
| 2026-04-24 06:33 | 24.72897 | 57.78286 | 32868 ft | 519 kts | 110° |
| 2026-04-24 06:34 | 24.70515 | 57.85778 | 32880 ft | 519 kts | 108° |
| 2026-04-24 06:34 | 24.68203 | 57.93304 | 32882 ft | 520 kts | 108° |
| 2026-04-24 06:35 | 24.65870 | 58.00823 | 32878 ft | 520 kts | 108° |
| 2026-04-24 06:35 | 24.63515 | 58.08334 | 32867 ft | 519 kts | 108° |
| 2026-04-24 06:36 | 24.61153 | 58.15833 | 32866 ft | 519 kts | 108° |
| 2026-04-24 06:36 | 24.58791 | 58.23326 | 32879 ft | 518 kts | 108° |
| 2026-04-24 06:37 | 24.56430 | 58.30804 | 32866 ft | 518 kts | 108° |
| 2026-04-24 06:37 | 24.54071 | 58.38264 | 32866 ft | 517 kts | 108° |
| 2026-04-24 06:38 | 24.51710 | 58.45715 | 32872 ft | 516 kts | 108° |
| 2026-04-24 06:38 | 24.49349 | 58.53152 | 32872 ft | 515 kts | 108° |
| 2026-04-24 06:39 | 24.46987 | 58.60577 | 32854 ft | 515 kts | 108° |
| 2026-04-24 06:39 | 24.44626 | 58.67986 | 32867 ft | 514 kts | 108° |
| 2026-04-24 06:40 | 24.42250 | 58.75383 | 32865 ft | 514 kts | 110° |
| 2026-04-24 06:40 | 24.39288 | 58.82461 | 32872 ft | 514 kts | 116° |
| 2026-04-24 06:41 | 24.36081 | 58.89526 | 32866 ft | 515 kts | 116° |
| 2026-04-24 06:41 | 24.32934 | 58.96521 | 32868 ft | 515 kts | 115° |
| 2026-04-24 06:42 | 24.29787 | 59.03577 | 32856 ft | 515 kts | 115° |
| 2026-04-24 06:42 | 24.26645 | 59.10630 | 32864 ft | 515 kts | 115° |
| 2026-04-24 06:43 | 24.23499 | 59.17678 | 32862 ft | 514 kts | 115° |
| 2026-04-24 06:43 | 24.20352 | 59.24712 | 32862 ft | 514 kts | 115° |
| 2026-04-24 06:44 | 24.17206 | 59.31732 | 32865 ft | 513 kts | 115° |
| 2026-04-24 06:44 | 24.14063 | 59.38736 | 32863 ft | 512 kts | 115° |
| 2026-04-24 06:45 | 24.10920 | 59.45731 | 32856 ft | 512 kts | 115° |
| 2026-04-24 06:45 | 24.07775 | 59.52715 | 32867 ft | 511 kts | 115° |
| 2026-04-24 06:46 | 24.04624 | 59.59684 | 32870 ft | 511 kts | 115° |
| 2026-04-24 06:46 | 24.01467 | 59.66655 | 32870 ft | 511 kts | 115° |
| 2026-04-24 06:47 | 23.98309 | 59.73624 | 32865 ft | 511 kts | 115° |
| 2026-04-24 06:47 | 23.95149 | 59.80588 | 32865 ft | 511 kts | 116° |
| 2026-04-24 06:48 | 23.91987 | 59.87544 | 32861 ft | 511 kts | 115° |
| 2026-04-24 06:48 | 23.88819 | 59.94506 | 32871 ft | 511 kts | 115° |
| 2026-04-24 06:49 | 23.85651 | 60.01456 | 32868 ft | 511 kts | 115° |
| 2026-04-24 06:49 | 23.82477 | 60.08410 | 32866 ft | 511 kts | 115° |
| 2026-04-24 06:50 | 23.79303 | 60.15352 | 32871 ft | 511 kts | 116° |
| 2026-04-24 06:50 | 23.76128 | 60.22289 | 32875 ft | 510 kts | 116° |
| 2026-04-24 06:51 | 23.72955 | 60.29209 | 32858 ft | 510 kts | 115° |
| 2026-04-24 06:51 | 23.69780 | 60.36123 | 32869 ft | 509 kts | 115° |
| 2026-04-24 06:52 | 23.66626 | 60.42983 | 32868 ft | 509 kts | 115° |
| 2026-04-24 06:52 | 23.63450 | 60.49880 | 32874 ft | 509 kts | 116° |
| 2026-04-24 06:53 | 23.60271 | 60.56775 | 32871 ft | 509 kts | 116° |
| 2026-04-24 06:53 | 23.57089 | 60.63664 | 32872 ft | 508 kts | 116° |
| 2026-04-24 06:54 | 23.53908 | 60.70544 | 32863 ft | 508 kts | 116° |
| 2026-04-24 06:54 | 23.50721 | 60.77425 | 32879 ft | 509 kts | 115° |
| 2026-04-24 06:55 | 23.47531 | 60.84303 | 32876 ft | 509 kts | 115° |
| 2026-04-24 06:55 | 23.44336 | 60.91183 | 32873 ft | 509 kts | 116° |
| 2026-04-24 06:56 | 23.41134 | 60.98067 | 32868 ft | 509 kts | 116° |
| 2026-04-24 06:56 | 23.37933 | 61.04942 | 32877 ft | 509 kts | 115° |
| 2026-04-24 06:57 | 23.34726 | 61.11819 | 32869 ft | 510 kts | 115° |
| 2026-04-24 06:57 | 23.32132 | 61.18959 | 32876 ft | 506 kts | 103° |
| 2026-04-24 06:58 | 23.30978 | 61.25175 | 32870 ft | 504 kts | 94° |
| 2026-04-24 06:58 | 23.30342 | 61.32760 | 32872 ft | 503 kts | 93° |
| 2026-04-24 06:59 | 23.29619 | 61.41572 | 32879 ft | 503 kts | 93° |
| 2026-04-24 06:59 | 23.29068 | 61.47920 | 32875 ft | 503 kts | 93° |
| 2026-04-24 07:00 | 23.28388 | 61.55487 | 32876 ft | 502 kts | 93° |
| 2026-04-24 07:00 | 23.27700 | 61.63051 | 32879 ft | 502 kts | 93° |
| 2026-04-24 07:01 | 23.27012 | 61.70601 | 32880 ft | 502 kts | 93° |
| 2026-04-24 07:01 | 23.26326 | 61.78097 | 32878 ft | 502 kts | 93° |
| 2026-04-24 07:02 | 23.25629 | 61.85691 | 32879 ft | 501 kts | 93° |
| 2026-04-24 07:02 | 23.24936 | 61.93191 | 32880 ft | 501 kts | 94° |
| 2026-04-24 07:03 | 23.24236 | 62.00727 | 32877 ft | 501 kts | 94° |
| 2026-04-24 07:03 | 23.23532 | 62.08266 | 32880 ft | 501 kts | 94° |
| 2026-04-24 07:04 | 23.22825 | 62.15798 | 32879 ft | 501 kts | 94° |
| 2026-04-24 07:04 | 23.22114 | 62.23328 | 32882 ft | 501 kts | 94° |
| 2026-04-24 07:05 | 23.21400 | 62.30856 | 32879 ft | 500 kts | 94° |
| 2026-04-24 07:05 | 23.20683 | 62.38379 | 32879 ft | 500 kts | 94° |
| 2026-04-24 07:06 | 23.19963 | 62.45898 | 32880 ft | 500 kts | 94° |
| 2026-04-24 07:06 | 23.19240 | 62.53408 | 32883 ft | 500 kts | 94° |
| 2026-04-24 07:07 | 23.18513 | 62.60922 | 32879 ft | 500 kts | 94° |
| 2026-04-24 07:07 | 23.17416 | 62.72183 | 32880 ft | 499 kts | 94° |
| 2026-04-24 07:08 | 23.16680 | 62.79689 | 32880 ft | 499 kts | 94° |
| 2026-04-24 07:08 | 23.15941 | 62.87196 | 32878 ft | 500 kts | 94° |
| 2026-04-24 07:09 | 23.15198 | 62.94699 | 32881 ft | 500 kts | 94° |
| 2026-04-24 07:09 | 23.14451 | 63.02210 | 32881 ft | 500 kts | 94° |
| 2026-04-24 07:10 | 23.13701 | 63.09721 | 32879 ft | 500 kts | 94° |
| 2026-04-24 07:10 | 23.12948 | 63.17219 | 32882 ft | 500 kts | 95° |
| 2026-04-24 07:11 | 23.12191 | 63.24724 | 32879 ft | 500 kts | 94° |
| 2026-04-24 07:11 | 23.11430 | 63.32228 | 32878 ft | 500 kts | 94° |
| 2026-04-24 07:12 | 23.10666 | 63.39728 | 32880 ft | 499 kts | 94° |
| 2026-04-24 07:12 | 23.09898 | 63.47228 | 32884 ft | 499 kts | 95° |
| 2026-04-24 07:13 | 23.09129 | 63.54716 | 32879 ft | 499 kts | 95° |
| 2026-04-24 07:13 | 23.08360 | 63.62157 | 32877 ft | 499 kts | 95° |
| 2026-04-24 07:14 | 23.07583 | 63.69640 | 32876 ft | 499 kts | 95° |
| 2026-04-24 07:14 | 23.06803 | 63.77122 | 32881 ft | 498 kts | 95° |
| 2026-04-24 07:15 | 23.06021 | 63.84601 | 32875 ft | 498 kts | 95° |
| 2026-04-24 07:15 | 23.05247 | 63.92075 | 32881 ft | 498 kts | 94° |
| 2026-04-24 07:16 | 23.04497 | 63.99544 | 32876 ft | 498 kts | 94° |
| 2026-04-24 07:16 | 23.03744 | 64.07014 | 32883 ft | 498 kts | 94° |
| 2026-04-24 07:17 | 23.02984 | 64.14483 | 32877 ft | 497 kts | 94° |
| 2026-04-24 07:17 | 23.02220 | 64.21944 | 32873 ft | 497 kts | 94° |
| 2026-04-24 07:18 | 23.01452 | 64.29401 | 32883 ft | 497 kts | 95° |
| 2026-04-24 07:18 | 23.00681 | 64.36862 | 32881 ft | 497 kts | 94° |
| 2026-04-24 07:19 | 22.99905 | 64.44330 | 32874 ft | 498 kts | 94° |
| 2026-04-24 07:19 | 22.99126 | 64.51792 | 32880 ft | 498 kts | 95° |
| 2026-04-24 07:20 | 22.98344 | 64.59260 | 32875 ft | 498 kts | 94° |
| 2026-04-24 07:20 | 22.97557 | 64.66728 | 32872 ft | 498 kts | 94° |
| 2026-04-24 07:21 | 22.96767 | 64.74199 | 32873 ft | 498 kts | 94° |
| 2026-04-24 07:21 | 22.95976 | 64.81669 | 32873 ft | 498 kts | 94° |
| 2026-04-24 07:22 | 22.95744 | 64.89158 | 32885 ft | 496 kts | 87° |
| 2026-04-24 07:22 | 22.95839 | 64.96640 | 32870 ft | 496 kts | 87° |
| 2026-04-24 07:23 | 22.95919 | 65.04131 | 32868 ft | 497 kts | 88° |
| 2026-04-24 07:23 | 22.95968 | 65.11635 | 32875 ft | 497 kts | 88° |
| 2026-04-24 07:24 | 22.96001 | 65.19136 | 32873 ft | 498 kts | 88° |
| 2026-04-24 07:24 | 22.96030 | 65.26644 | 32868 ft | 498 kts | 88° |
| 2026-04-24 07:25 | 22.96057 | 65.34161 | 32868 ft | 498 kts | 88° |
| 2026-04-24 07:25 | 22.96082 | 65.41622 | 32875 ft | 498 kts | 88° |
| 2026-04-24 07:26 | 22.96103 | 65.49139 | 32866 ft | 498 kts | 88° |
| 2026-04-24 07:26 | 22.96120 | 65.56657 | 32867 ft | 498 kts | 88° |
| 2026-04-24 07:27 | 22.96134 | 65.64168 | 32868 ft | 498 kts | 88° |
| 2026-04-24 07:27 | 22.96144 | 65.71682 | 32866 ft | 498 kts | 88° |
| 2026-04-24 07:28 | 22.96151 | 65.79192 | 32865 ft | 498 kts | 88° |
| 2026-04-24 07:28 | 22.96154 | 65.86704 | 32866 ft | 498 kts | 88° |
| 2026-04-24 07:29 | 22.96154 | 65.94214 | 32875 ft | 498 kts | 88° |
| 2026-04-24 07:29 | 22.96150 | 66.01718 | 32869 ft | 498 kts | 89° |
| 2026-04-24 07:30 | 22.96143 | 66.09228 | 32867 ft | 497 kts | 88° |
| 2026-04-24 07:30 | 22.96132 | 66.16733 | 32864 ft | 497 kts | 88° |
| 2026-04-24 07:31 | 22.96117 | 66.24237 | 32865 ft | 497 kts | 88° |
| 2026-04-24 07:31 | 22.96099 | 66.31738 | 32864 ft | 497 kts | 88° |
| 2026-04-24 07:32 | 22.96078 | 66.39235 | 32866 ft | 496 kts | 89° |
| 2026-04-24 07:32 | 22.96053 | 66.46720 | 32868 ft | 496 kts | 89° |
| 2026-04-24 07:33 | 22.96025 | 66.54202 | 32862 ft | 496 kts | 89° |
| 2026-04-24 07:33 | 22.95993 | 66.61629 | 32872 ft | 495 kts | 88° |
| 2026-04-24 07:34 | 22.95958 | 66.69096 | 32864 ft | 495 kts | 89° |
| 2026-04-24 07:34 | 22.95919 | 66.76560 | 32867 ft | 494 kts | 89° |
| 2026-04-24 07:35 | 22.95877 | 66.84016 | 32866 ft | 494 kts | 89° |
| 2026-04-24 07:35 | 22.95832 | 66.91465 | 32871 ft | 494 kts | 89° |
| 2026-04-24 07:36 | 22.95790 | 66.98915 | 32864 ft | 494 kts | 89° |
| 2026-04-24 07:36 | 22.95806 | 67.06360 | 32860 ft | 493 kts | 88° |
| 2026-04-24 07:37 | 22.95834 | 67.13799 | 32865 ft | 493 kts | 89° |
| 2026-04-24 07:37 | 22.95851 | 67.21236 | 32862 ft | 493 kts | 88° |
| 2026-04-24 07:38 | 22.95860 | 67.28681 | 32864 ft | 493 kts | 88° |
| 2026-04-24 07:38 | 22.95863 | 67.36124 | 32863 ft | 493 kts | 88° |
| 2026-04-24 07:39 | 22.95864 | 67.43567 | 32863 ft | 493 kts | 88° |
| 2026-04-24 07:39 | 22.95861 | 67.51011 | 32864 ft | 494 kts | 88° |
| 2026-04-24 07:40 | 22.95855 | 67.58463 | 32865 ft | 494 kts | 89° |
| 2026-04-24 07:40 | 22.95846 | 67.65912 | 32865 ft | 494 kts | 88° |
| 2026-04-24 07:41 | 22.95833 | 67.73367 | 32861 ft | 494 kts | 88° |
| 2026-04-24 07:41 | 22.95817 | 67.80819 | 32862 ft | 494 kts | 89° |
| 2026-04-24 07:42 | 22.95798 | 67.88275 | 32864 ft | 494 kts | 89° |
| 2026-04-24 07:42 | 22.95802 | 67.95733 | 32863 ft | 494 kts | 88° |
| 2026-04-24 07:43 | 22.95814 | 68.03187 | 32864 ft | 494 kts | 88° |
| 2026-04-24 07:43 | 22.95820 | 68.10637 | 32864 ft | 494 kts | 88° |
| 2026-04-24 07:44 | 22.95819 | 68.18045 | 32863 ft | 494 kts | 88° |
| 2026-04-24 07:44 | 22.95814 | 68.25499 | 32864 ft | 494 kts | 88° |
| 2026-04-24 07:45 | 22.95807 | 68.32959 | 32859 ft | 494 kts | 88° |
| 2026-04-24 07:45 | 22.95703 | 68.40413 | 32860 ft | 495 kts | 91° |
| 2026-04-24 07:46 | 22.95277 | 68.47869 | 32860 ft | 495 kts | 92° |
| 2026-04-24 07:46 | 22.94807 | 68.55317 | 32863 ft | 495 kts | 92° |
| 2026-04-24 07:47 | 22.94426 | 68.61569 | 32861 ft | 495 kts | 92° |
| 2026-04-24 07:47 | 22.93987 | 68.68977 | 32863 ft | 495 kts | 92° |
| 2026-04-24 07:48 | 22.93548 | 68.76435 | 32860 ft | 495 kts | 92° |
| 2026-04-24 07:48 | 22.93104 | 68.83892 | 32849 ft | 495 kts | 92° |
| 2026-04-24 07:49 | 22.92656 | 68.91347 | 32867 ft | 495 kts | 92° |
| 2026-04-24 07:49 | 22.92204 | 68.98798 | 32852 ft | 494 kts | 92° |
| 2026-04-24 07:50 | 22.91750 | 69.06228 | 32855 ft | 493 kts | 92° |
| 2026-04-24 07:50 | 22.91294 | 69.13645 | 32845 ft | 493 kts | 92° |
| 2026-04-24 07:51 | 22.90834 | 69.21055 | 32847 ft | 492 kts | 92° |
| 2026-04-24 07:51 | 22.90372 | 69.28453 | 32846 ft | 492 kts | 92° |
| 2026-04-24 07:52 | 22.89906 | 69.35853 | 32857 ft | 492 kts | 92° |
| 2026-04-24 07:52 | 22.89437 | 69.43249 | 32856 ft | 492 kts | 92° |
| 2026-04-24 07:53 | 22.88965 | 69.50648 | 32846 ft | 492 kts | 92° |
| 2026-04-24 07:53 | 22.88489 | 69.58050 | 32855 ft | 492 kts | 92° |
| 2026-04-24 07:54 | 22.88009 | 69.65463 | 32856 ft | 493 kts | 92° |
| 2026-04-24 07:54 | 22.87532 | 69.72877 | 32849 ft | 493 kts | 92° |
| 2026-04-24 07:55 | 22.87099 | 69.80305 | 32853 ft | 493 kts | 91° |
| 2026-04-24 07:55 | 22.86678 | 69.87721 | 32866 ft | 493 kts | 91° |
| 2026-04-24 07:56 | 22.86246 | 69.95151 | 32858 ft | 494 kts | 91° |
| 2026-04-24 07:56 | 22.85806 | 70.02584 | 32852 ft | 494 kts | 91° |
| 2026-04-24 07:57 | 22.85362 | 70.10019 | 32853 ft | 494 kts | 91° |
| 2026-04-24 07:57 | 22.84914 | 70.17452 | 32871 ft | 494 kts | 91° |
| 2026-04-24 07:58 | 22.84463 | 70.24885 | 32862 ft | 494 kts | 92° |
| 2026-04-24 07:58 | 22.84009 | 70.32318 | 32860 ft | 494 kts | 92° |
| 2026-04-24 07:59 | 22.83551 | 70.39757 | 32872 ft | 495 kts | 92° |
| 2026-04-24 07:59 | 22.83089 | 70.47201 | 32866 ft | 495 kts | 92° |
| 2026-04-24 08:00 | 22.82624 | 70.54642 | 32879 ft | 495 kts | 92° |
| 2026-04-24 08:00 | 22.82158 | 70.62042 | 32872 ft | 496 kts | 92° |
| 2026-04-24 08:01 | 22.81685 | 70.69493 | 32859 ft | 496 kts | 92° |
| 2026-04-24 08:01 | 22.81209 | 70.76947 | 32858 ft | 496 kts | 92° |
| 2026-04-24 08:02 | 22.81032 | 70.84398 | 32859 ft | 493 kts | 85° |
| 2026-04-24 08:02 | 22.81983 | 70.91737 | 32866 ft | 491 kts | 78° |
| 2026-04-24 08:03 | 22.83143 | 70.99044 | 32856 ft | 492 kts | 79° |
| 2026-04-24 08:03 | 22.84268 | 71.06355 | 32844 ft | 492 kts | 79° |
| 2026-04-24 08:04 | 22.85367 | 71.13677 | 32847 ft | 492 kts | 79° |
| 2026-04-24 08:04 | 22.86457 | 71.21007 | 32837 ft | 492 kts | 79° |
| 2026-04-24 08:05 | 22.87543 | 71.28334 | 32843 ft | 492 kts | 79° |
| 2026-04-24 08:05 | 22.88627 | 71.35660 | 32834 ft | 492 kts | 79° |
| 2026-04-24 08:06 | 22.89709 | 71.42991 | 32836 ft | 492 kts | 79° |
| 2026-04-24 08:06 | 22.90788 | 71.50325 | 32838 ft | 492 kts | 79° |
| 2026-04-24 08:07 | 22.91862 | 71.57655 | 32838 ft | 492 kts | 79° |
| 2026-04-24 08:07 | 22.92935 | 71.64993 | 32829 ft | 493 kts | 79° |
| 2026-04-24 08:08 | 22.94004 | 71.72335 | 32821 ft | 493 kts | 79° |
| 2026-04-24 08:09 | 22.95602 | 71.83353 | 32819 ft | 493 kts | 79° |
| 2026-04-24 08:09 | 22.96663 | 71.90706 | 32815 ft | 493 kts | 79° |
| 2026-04-24 08:10 | 22.97723 | 71.98068 | 32809 ft | 494 kts | 80° |
| 2026-04-24 08:10 | 22.98780 | 72.05434 | 32809 ft | 494 kts | 80° |
| 2026-04-24 08:11 | 22.99835 | 72.12811 | 32802 ft | 495 kts | 80° |
| 2026-04-24 08:11 | 23.00887 | 72.20196 | 32802 ft | 495 kts | 80° |
| 2026-04-24 08:12 | 23.01935 | 72.27578 | 32790 ft | 496 kts | 80° |
| 2026-04-24 08:12 | 23.02978 | 72.34951 | 33142 ft | 498 kts | 80° |
| 2026-04-24 08:12 | 23.03507 | 72.38696 | 33581 ft | 494 kts | 80° |
| 2026-04-24 08:13 | 23.04019 | 72.42334 | 33900 ft | 493 kts | 80° |
| 2026-04-24 08:13 | 23.04536 | 72.46009 | 34105 ft | 494 kts | 80° |
| 2026-04-24 08:13 | 23.05056 | 72.49709 | 34274 ft | 496 kts | 80° |
| 2026-04-24 08:13 | 23.05575 | 72.53412 | 34472 ft | 496 kts | 80° |
| 2026-04-24 08:14 | 23.06093 | 72.57114 | 34684 ft | 496 kts | 80° |
| 2026-04-24 08:14 | 23.07071 | 72.64575 | 34780 ft | 501 kts | 84° |
| 2026-04-24 08:15 | 23.07544 | 72.72163 | 34794 ft | 502 kts | 86° |
| 2026-04-24 08:15 | 23.07890 | 72.79719 | 34802 ft | 500 kts | 86° |
| 2026-04-24 08:16 | 23.08265 | 72.87258 | 34794 ft | 499 kts | 86° |
| 2026-04-24 08:16 | 23.08669 | 72.94726 | 34789 ft | 499 kts | 86° |
| 2026-04-24 08:17 | 23.09083 | 73.02245 | 34792 ft | 499 kts | 86° |
| 2026-04-24 08:17 | 23.09494 | 73.09785 | 34810 ft | 500 kts | 86° |
| 2026-04-24 08:18 | 23.09900 | 73.17336 | 34805 ft | 502 kts | 86° |
| 2026-04-24 08:18 | 23.10302 | 73.24908 | 34807 ft | 503 kts | 86° |
| 2026-04-24 08:19 | 23.10702 | 73.32497 | 34807 ft | 504 kts | 86° |
| 2026-04-24 08:19 | 23.11098 | 73.40099 | 34811 ft | 504 kts | 86° |
| 2026-04-24 08:20 | 23.11491 | 73.47705 | 34808 ft | 505 kts | 86° |
| 2026-04-24 08:20 | 23.11881 | 73.55317 | 34816 ft | 505 kts | 86° |
| 2026-04-24 08:21 | 23.12267 | 73.62928 | 34818 ft | 504 kts | 86° |
| 2026-04-24 08:21 | 23.12650 | 73.70535 | 34819 ft | 504 kts | 86° |
| 2026-04-24 08:22 | 23.13028 | 73.78137 | 34820 ft | 504 kts | 87° |
| 2026-04-24 08:22 | 23.13400 | 73.85690 | 34834 ft | 504 kts | 87° |
| 2026-04-24 08:23 | 23.13771 | 73.93289 | 34835 ft | 504 kts | 87° |
| 2026-04-24 08:23 | 23.14138 | 74.00882 | 34837 ft | 504 kts | 87° |
| 2026-04-24 08:24 | 23.14501 | 74.08487 | 34850 ft | 504 kts | 87° |
| 2026-04-24 08:24 | 23.14862 | 74.16098 | 34846 ft | 505 kts | 87° |
| 2026-04-24 08:25 | 23.15219 | 74.23719 | 34856 ft | 505 kts | 87° |
| 2026-04-24 08:25 | 23.15573 | 74.31341 | 34856 ft | 505 kts | 87° |
| 2026-04-24 08:26 | 23.15866 | 74.38971 | 34861 ft | 506 kts | 88° |
| 2026-04-24 08:26 | 23.16007 | 74.46613 | 34864 ft | 506 kts | 89° |
| 2026-04-24 08:27 | 23.16130 | 74.54249 | 34872 ft | 506 kts | 89° |
| 2026-04-24 08:27 | 23.16270 | 74.61896 | 34874 ft | 506 kts | 89° |
| 2026-04-24 08:28 | 23.16419 | 74.69542 | 34879 ft | 506 kts | 89° |
| 2026-04-24 08:28 | 23.16567 | 74.77179 | 34879 ft | 506 kts | 89° |
| 2026-04-24 08:29 | 23.16710 | 74.84826 | 34888 ft | 506 kts | 89° |
| 2026-04-24 08:29 | 23.16848 | 74.92462 | 34889 ft | 506 kts | 89° |
| 2026-04-24 08:30 | 23.16982 | 75.00097 | 34884 ft | 506 kts | 89° |
| 2026-04-24 08:30 | 23.17113 | 75.07737 | 34886 ft | 506 kts | 89° |
| 2026-04-24 08:31 | 23.17239 | 75.15328 | 34891 ft | 506 kts | 89° |
| 2026-04-24 08:31 | 23.17363 | 75.22983 | 34896 ft | 507 kts | 89° |
| 2026-04-24 08:32 | 23.17483 | 75.30642 | 34887 ft | 507 kts | 89° |
| 2026-04-24 08:32 | 23.17599 | 75.38313 | 34894 ft | 507 kts | 89° |
| 2026-04-24 08:33 | 23.17712 | 75.45982 | 34895 ft | 508 kts | 89° |
| 2026-04-24 08:33 | 23.17821 | 75.53660 | 34895 ft | 508 kts | 89° |
| 2026-04-24 08:34 | 23.17909 | 75.60040 | 34888 ft | 508 kts | 89° |
| 2026-04-24 08:34 | 23.18011 | 75.67718 | 34891 ft | 508 kts | 89° |
| 2026-04-24 08:35 | 23.18110 | 75.75396 | 34891 ft | 508 kts | 89° |
| 2026-04-24 08:35 | 23.18205 | 75.83076 | 34886 ft | 508 kts | 90° |
| 2026-04-24 08:36 | 23.18296 | 75.90754 | 34883 ft | 508 kts | 90° |
| 2026-04-24 08:36 | 23.18384 | 75.98432 | 34877 ft | 508 kts | 90° |
| 2026-04-24 08:37 | 23.18811 | 76.06091 | 34883 ft | 508 kts | 85° |
| 2026-04-24 08:37 | 23.19441 | 76.13738 | 34866 ft | 508 kts | 85° |
| 2026-04-24 08:38 | 23.20064 | 76.21393 | 34863 ft | 509 kts | 85° |
| 2026-04-24 08:38 | 23.20660 | 76.29067 | 34864 ft | 509 kts | 85° |
| 2026-04-24 08:39 | 23.21239 | 76.36691 | 34855 ft | 510 kts | 86° |
| 2026-04-24 08:39 | 23.21819 | 76.44382 | 34851 ft | 510 kts | 86° |
| 2026-04-24 08:40 | 23.22397 | 76.52074 | 34841 ft | 511 kts | 86° |
| 2026-04-24 08:40 | 23.22972 | 76.59781 | 34845 ft | 512 kts | 86° |
| 2026-04-24 08:41 | 23.23544 | 76.67494 | 34849 ft | 512 kts | 86° |
| 2026-04-24 08:41 | 23.24114 | 76.75218 | 34845 ft | 513 kts | 86° |
| 2026-04-24 08:42 | 23.24681 | 76.82958 | 34839 ft | 513 kts | 86° |
| 2026-04-24 08:42 | 23.25244 | 76.90695 | 34836 ft | 514 kts | 86° |
| 2026-04-24 08:43 | 23.25803 | 76.98449 | 34844 ft | 514 kts | 86° |
| 2026-04-24 08:43 | 23.26359 | 77.06211 | 34839 ft | 515 kts | 86° |
| 2026-04-24 08:44 | 23.26913 | 77.13978 | 34840 ft | 515 kts | 86° |
| 2026-04-24 08:44 | 23.27462 | 77.21747 | 34841 ft | 515 kts | 86° |
| 2026-04-24 08:45 | 23.28009 | 77.29530 | 34837 ft | 516 kts | 87° |
| 2026-04-24 08:45 | 23.28255 | 77.37319 | 34840 ft | 515 kts | 94° |
| 2026-04-24 08:46 | 23.27906 | 77.45103 | 34832 ft | 515 kts | 95° |
| 2026-04-24 08:46 | 23.27535 | 77.52895 | 34839 ft | 516 kts | 94° |
| 2026-04-24 08:47 | 23.27196 | 77.60687 | 34833 ft | 517 kts | 94° |
| 2026-04-24 08:47 | 23.26871 | 77.68503 | 34834 ft | 517 kts | 94° |
| 2026-04-24 08:48 | 23.26545 | 77.76322 | 34825 ft | 519 kts | 95° |
| 2026-04-24 08:48 | 23.26211 | 77.84173 | 34842 ft | 520 kts | 95° |
| 2026-04-24 08:49 | 23.25870 | 77.92038 | 34840 ft | 522 kts | 95° |
| 2026-04-24 08:49 | 23.25528 | 77.99872 | 34831 ft | 523 kts | 95° |
| 2026-04-24 08:50 | 23.25178 | 78.07777 | 34840 ft | 524 kts | 95° |
| 2026-04-24 08:50 | 23.24824 | 78.15691 | 34843 ft | 524 kts | 95° |
| 2026-04-24 08:51 | 23.24467 | 78.23607 | 34829 ft | 524 kts | 95° |
| 2026-04-24 08:51 | 23.24104 | 78.31526 | 34841 ft | 524 kts | 95° |
| 2026-04-24 08:52 | 23.23739 | 78.39436 | 34835 ft | 523 kts | 95° |
| 2026-04-24 08:52 | 23.23370 | 78.47332 | 34845 ft | 523 kts | 95° |
| 2026-04-24 08:53 | 23.22997 | 78.55226 | 34845 ft | 523 kts | 95° |
| 2026-04-24 08:53 | 23.22621 | 78.63118 | 34844 ft | 522 kts | 95° |
| 2026-04-24 08:54 | 23.22241 | 78.70992 | 34837 ft | 522 kts | 95° |
| 2026-04-24 08:54 | 23.21932 | 78.78895 | 34857 ft | 523 kts | 93° |
| 2026-04-24 08:55 | 23.21848 | 78.86814 | 34860 ft | 524 kts | 92° |
| 2026-04-24 08:55 | 23.21780 | 78.94748 | 34852 ft | 525 kts | 93° |
| 2026-04-24 08:56 | 23.21669 | 79.02685 | 34844 ft | 526 kts | 93° |
| 2026-04-24 08:56 | 23.21536 | 79.10641 | 34840 ft | 526 kts | 93° |
| 2026-04-24 08:57 | 23.21399 | 79.18595 | 34836 ft | 527 kts | 93° |
| 2026-04-24 08:57 | 23.21260 | 79.26565 | 34850 ft | 527 kts | 93° |
| 2026-04-24 08:58 | 23.21119 | 79.34482 | 34837 ft | 528 kts | 93° |
| 2026-04-24 08:58 | 23.20973 | 79.42453 | 34846 ft | 527 kts | 93° |
| 2026-04-24 08:59 | 23.20823 | 79.50430 | 34850 ft | 528 kts | 93° |
| 2026-04-24 08:59 | 23.20662 | 79.58416 | 34827 ft | 528 kts | 94° |
| 2026-04-24 09:00 | 23.20349 | 79.66392 | 34834 ft | 528 kts | 95° |
| 2026-04-24 09:00 | 23.19978 | 79.74370 | 34825 ft | 529 kts | 95° |
| 2026-04-24 09:01 | 23.19626 | 79.82358 | 34817 ft | 529 kts | 95° |
| 2026-04-24 09:01 | 23.19285 | 79.90350 | 34834 ft | 530 kts | 95° |
| 2026-04-24 09:02 | 23.18940 | 79.98361 | 34837 ft | 531 kts | 95° |
| 2026-04-24 09:02 | 23.18587 | 80.06389 | 34831 ft | 532 kts | 95° |
| 2026-04-24 09:03 | 23.18193 | 80.14418 | 34834 ft | 532 kts | 96° |
| 2026-04-24 09:03 | 23.17771 | 80.22452 | 34833 ft | 533 kts | 96° |
| 2026-04-24 09:04 | 23.17347 | 80.30503 | 34825 ft | 534 kts | 96° |
| 2026-04-24 09:04 | 23.16925 | 80.38574 | 34830 ft | 535 kts | 96° |
| 2026-04-24 09:05 | 23.16502 | 80.46600 | 34823 ft | 536 kts | 96° |
| 2026-04-24 09:05 | 23.16072 | 80.54675 | 34816 ft | 536 kts | 96° |
| 2026-04-24 09:06 | 23.15636 | 80.62780 | 34825 ft | 537 kts | 96° |
| 2026-04-24 09:06 | 23.15195 | 80.70901 | 34804 ft | 540 kts | 97° |
| 2026-04-24 09:07 | 23.14748 | 80.79068 | 34815 ft | 544 kts | 97° |
| 2026-04-24 09:07 | 23.14071 | 80.91437 | 34826 ft | 549 kts | 97° |
| 2026-04-24 09:08 | 23.13613 | 80.99747 | 34820 ft | 553 kts | 97° |
| 2026-04-24 09:08 | 23.13146 | 81.08113 | 34814 ft | 556 kts | 97° |
| 2026-04-24 09:09 | 23.12674 | 81.16494 | 34820 ft | 557 kts | 97° |
| 2026-04-24 09:09 | 23.12204 | 81.24881 | 34819 ft | 555 kts | 97° |
| 2026-04-24 09:10 | 23.11720 | 81.33251 | 34803 ft | 555 kts | 97° |
| 2026-04-24 09:10 | 23.11233 | 81.41609 | 34813 ft | 554 kts | 97° |
| 2026-04-24 09:11 | 23.10746 | 81.49967 | 34813 ft | 554 kts | 97° |
| 2026-04-24 09:11 | 23.10254 | 81.58306 | 34809 ft | 554 kts | 97° |
| 2026-04-24 09:12 | 23.09758 | 81.66649 | 34800 ft | 553 kts | 97° |
| 2026-04-24 09:12 | 23.09256 | 81.75001 | 34801 ft | 554 kts | 98° |
| 2026-04-24 09:13 | 23.08750 | 81.83357 | 34801 ft | 555 kts | 98° |
| 2026-04-24 09:13 | 23.08238 | 81.91731 | 34801 ft | 556 kts | 98° |
| 2026-04-24 09:14 | 23.07722 | 82.00115 | 34792 ft | 557 kts | 98° |
| 2026-04-24 09:14 | 23.07200 | 82.08511 | 34790 ft | 557 kts | 98° |
| 2026-04-24 09:15 | 23.06675 | 82.16914 | 34789 ft | 558 kts | 97° |
| 2026-04-24 09:15 | 23.06259 | 82.25329 | 34788 ft | 558 kts | 96° |
| 2026-04-24 09:16 | 23.05927 | 82.33745 | 34788 ft | 558 kts | 96° |
| 2026-04-24 09:16 | 23.05584 | 82.42154 | 34766 ft | 558 kts | 96° |
| 2026-04-24 09:17 | 23.05215 | 82.50569 | 34777 ft | 558 kts | 97° |
| 2026-04-24 09:17 | 23.04834 | 82.58928 | 34779 ft | 558 kts | 97° |
| 2026-04-24 09:18 | 23.04445 | 82.67400 | 34774 ft | 559 kts | 97° |
| 2026-04-24 09:18 | 23.04054 | 82.75831 | 34777 ft | 559 kts | 97° |
| 2026-04-24 09:19 | 23.03664 | 82.84214 | 34780 ft | 560 kts | 97° |
| 2026-04-24 09:19 | 23.03266 | 82.92652 | 34783 ft | 560 kts | 97° |
| 2026-04-24 09:20 | 23.02863 | 83.01106 | 34783 ft | 561 kts | 97° |
| 2026-04-24 09:20 | 23.02454 | 83.09556 | 34785 ft | 561 kts | 97° |
| 2026-04-24 09:21 | 23.02042 | 83.18008 | 34785 ft | 561 kts | 97° |
| 2026-04-24 09:21 | 23.01624 | 83.26457 | 34791 ft | 561 kts | 97° |
| 2026-04-24 09:22 | 23.01274 | 83.33485 | 34806 ft | 561 kts | 97° |
| 2026-04-24 09:22 | 23.00849 | 83.41932 | 34800 ft | 561 kts | 97° |
| 2026-04-24 09:23 | 23.00420 | 83.50381 | 34812 ft | 561 kts | 97° |
| 2026-04-24 09:23 | 22.99985 | 83.58827 | 34813 ft | 561 kts | 97° |
| 2026-04-24 09:24 | 22.99546 | 83.67282 | 34825 ft | 561 kts | 97° |
| 2026-04-24 09:24 | 22.99102 | 83.75748 | 34832 ft | 562 kts | 97° |
| 2026-04-24 09:25 | 22.98654 | 83.84210 | 34809 ft | 562 kts | 97° |
| 2026-04-24 09:25 | 22.98201 | 83.92662 | 34831 ft | 560 kts | 97° |
| 2026-04-24 09:26 | 22.97745 | 84.01098 | 34817 ft | 560 kts | 97° |
| 2026-04-24 09:26 | 22.97285 | 84.09530 | 34847 ft | 559 kts | 97° |
| 2026-04-24 09:27 | 22.96787 | 84.17944 | 34839 ft | 558 kts | 98° |
| 2026-04-24 09:27 | 22.96173 | 84.26336 | 34846 ft | 558 kts | 98° |
| 2026-04-24 09:28 | 22.95542 | 84.34715 | 34849 ft | 557 kts | 98° |
| 2026-04-24 09:28 | 22.94925 | 84.43096 | 34857 ft | 557 kts | 98° |
| 2026-04-24 09:29 | 22.94313 | 84.51480 | 34848 ft | 558 kts | 98° |
| 2026-04-24 09:29 | 22.93698 | 84.59872 | 34856 ft | 558 kts | 98° |
| 2026-04-24 09:30 | 22.92971 | 84.69682 | 34842 ft | 558 kts | 98° |
| 2026-04-24 09:30 | 22.92449 | 84.76659 | 34848 ft | 559 kts | 98° |
| 2026-04-24 09:31 | 22.91818 | 84.85060 | 34853 ft | 559 kts | 98° |
| 2026-04-24 09:31 | 22.91181 | 84.93466 | 34846 ft | 559 kts | 98° |
| 2026-04-24 09:32 | 22.90540 | 85.01874 | 34845 ft | 559 kts | 98° |
| 2026-04-24 09:32 | 22.89895 | 85.10280 | 34831 ft | 559 kts | 98° |
| 2026-04-24 09:33 | 22.89246 | 85.18678 | 34846 ft | 559 kts | 98° |
| 2026-04-24 09:33 | 22.88592 | 85.27084 | 34841 ft | 559 kts | 98° |
| 2026-04-24 09:34 | 22.87936 | 85.35486 | 34847 ft | 559 kts | 98° |
| 2026-04-24 09:34 | 22.87279 | 85.43835 | 34829 ft | 559 kts | 98° |
| 2026-04-24 09:35 | 22.86614 | 85.52228 | 34842 ft | 558 kts | 98° |
| 2026-04-24 09:35 | 22.85944 | 85.60620 | 34835 ft | 559 kts | 98° |
| 2026-04-24 09:36 | 22.85269 | 85.69009 | 34822 ft | 558 kts | 98° |
| 2026-04-24 09:36 | 22.84594 | 85.77381 | 34817 ft | 558 kts | 98° |
| 2026-04-24 09:37 | 22.83914 | 85.85763 | 34797 ft | 558 kts | 98° |
| 2026-04-24 09:37 | 22.83226 | 85.94158 | 34762 ft | 559 kts | 98° |
| 2026-04-24 09:38 | 22.82533 | 86.02552 | 34733 ft | 560 kts | 98° |
| 2026-04-24 09:38 | 22.81837 | 86.10961 | 34719 ft | 560 kts | 98° |
| 2026-04-24 09:39 | 22.81145 | 86.19361 | 34716 ft | 560 kts | 97° |
| 2026-04-24 09:39 | 22.80655 | 86.27787 | 34773 ft | 561 kts | 96° |
| 2026-04-24 09:40 | 22.80263 | 86.36224 | 34775 ft | 561 kts | 96° |
| 2026-04-24 09:40 | 22.79842 | 86.44664 | 34767 ft | 561 kts | 96° |
| 2026-04-24 09:41 | 22.79387 | 86.53094 | 34768 ft | 560 kts | 96° |
| 2026-04-24 09:41 | 22.78917 | 86.61526 | 34759 ft | 560 kts | 96° |
| 2026-04-24 09:42 | 22.78445 | 86.69943 | 34749 ft | 560 kts | 96° |
| 2026-04-24 09:42 | 22.77970 | 86.78371 | 34751 ft | 560 kts | 96° |
| 2026-04-24 09:43 | 22.77493 | 86.86784 | 34739 ft | 560 kts | 96° |
| 2026-04-24 09:43 | 22.77014 | 86.95147 | 34714 ft | 560 kts | 96° |
| 2026-04-24 09:44 | 22.76528 | 87.03552 | 34729 ft | 559 kts | 96° |
| 2026-04-24 09:44 | 22.76037 | 87.11964 | 34713 ft | 559 kts | 96° |
| 2026-04-24 09:45 | 22.75542 | 87.20369 | 34709 ft | 559 kts | 96° |
| 2026-04-24 09:45 | 22.75043 | 87.28773 | 34716 ft | 558 kts | 96° |
| 2026-04-24 09:46 | 22.74540 | 87.37165 | 34718 ft | 558 kts | 96° |
| 2026-04-24 09:46 | 22.74033 | 87.45551 | 34718 ft | 558 kts | 96° |
| 2026-04-24 09:47 | 22.73522 | 87.53934 | 34722 ft | 558 kts | 96° |
| 2026-04-24 09:47 | 22.73006 | 87.62325 | 34720 ft | 558 kts | 96° |
| 2026-04-24 09:48 | 22.72486 | 87.70712 | 34720 ft | 558 kts | 96° |
| 2026-04-24 09:48 | 22.71962 | 87.79093 | 34728 ft | 558 kts | 96° |
| 2026-04-24 09:49 | 22.71433 | 87.87472 | 34728 ft | 558 kts | 96° |
| 2026-04-24 09:49 | 22.70900 | 87.95857 | 34728 ft | 558 kts | 96° |
| 2026-04-24 09:50 | 22.70362 | 88.04241 | 34736 ft | 558 kts | 96° |
| 2026-04-24 09:50 | 22.69819 | 88.12636 | 34727 ft | 559 kts | 96° |
| 2026-04-24 09:51 | 22.69273 | 88.21026 | 34729 ft | 559 kts | 96° |
| 2026-04-24 09:51 | 22.68722 | 88.29415 | 34724 ft | 559 kts | 96° |
| 2026-04-24 09:52 | 22.68167 | 88.37805 | 34720 ft | 559 kts | 96° |
| 2026-04-24 09:52 | 22.67527 | 88.46188 | 34716 ft | 558 kts | 100° |
| 2026-04-24 09:53 | 22.66171 | 88.54439 | 34723 ft | 556 kts | 103° |
| 2026-04-24 09:53 | 22.64721 | 88.62653 | 34725 ft | 556 kts | 103° |
| 2026-04-24 09:54 | 22.63316 | 88.70885 | 34733 ft | 556 kts | 103° |
| 2026-04-24 09:54 | 22.61935 | 88.79121 | 34741 ft | 556 kts | 103° |
| 2026-04-24 09:55 | 22.60544 | 88.87358 | 34743 ft | 556 kts | 102° |
| 2026-04-24 09:55 | 22.59193 | 88.95604 | 34741 ft | 557 kts | 99° |
| 2026-04-24 09:56 | 22.58254 | 89.03870 | 34748 ft | 557 kts | 98° |
| 2026-04-24 09:56 | 22.57386 | 89.12205 | 34745 ft | 558 kts | 98° |
| 2026-04-24 09:57 | 22.56495 | 89.20542 | 34747 ft | 558 kts | 98° |
| 2026-04-24 09:57 | 22.55573 | 89.28874 | 34747 ft | 558 kts | 98° |
| 2026-04-24 09:58 | 22.54641 | 89.37203 | 34747 ft | 558 kts | 98° |
| 2026-04-24 09:58 | 22.53706 | 89.45527 | 34750 ft | 557 kts | 98° |
| 2026-04-24 09:59 | 22.52762 | 89.53905 | 34747 ft | 557 kts | 98° |
| 2026-04-24 09:59 | 22.51821 | 89.62221 | 34751 ft | 557 kts | 98° |
| 2026-04-24 10:00 | 22.50882 | 89.70486 | 34752 ft | 557 kts | 98° |
| 2026-04-24 10:00 | 22.49933 | 89.78806 | 34753 ft | 557 kts | 98° |
| 2026-04-24 10:01 | 22.48979 | 89.87122 | 34751 ft | 557 kts | 98° |
| 2026-04-24 10:01 | 22.48021 | 89.95435 | 34752 ft | 557 kts | 98° |
| 2026-04-24 10:02 | 22.47058 | 90.03747 | 34754 ft | 557 kts | 98° |
| 2026-04-24 10:02 | 22.46091 | 90.12068 | 34756 ft | 557 kts | 98° |
| 2026-04-24 10:03 | 22.45122 | 90.20370 | 34750 ft | 556 kts | 98° |
| 2026-04-24 10:03 | 22.44149 | 90.28659 | 34762 ft | 555 kts | 98° |
| 2026-04-24 10:04 | 22.43173 | 90.36942 | 34761 ft | 555 kts | 98° |
| 2026-04-24 10:04 | 22.42194 | 90.45208 | 34759 ft | 554 kts | 98° |
| 2026-04-24 10:05 | 22.41212 | 90.53471 | 34765 ft | 554 kts | 98° |
| 2026-04-24 10:05 | 22.40232 | 90.61677 | 34767 ft | 554 kts | 98° |
| 2026-04-24 10:06 | 22.38743 | 90.74071 | 34768 ft | 555 kts | 98° |
| 2026-04-24 10:07 | 22.37745 | 90.82334 | 34772 ft | 555 kts | 98° |
| 2026-04-24 10:07 | 22.36742 | 90.90603 | 34772 ft | 555 kts | 98° |
| 2026-04-24 10:08 | 22.35735 | 90.98875 | 34774 ft | 555 kts | 98° |
| 2026-04-24 10:08 | 22.34895 | 91.05748 | 34773 ft | 555 kts | 98° |
| 2026-04-24 10:09 | 22.33873 | 91.14074 | 34774 ft | 555 kts | 98° |
| 2026-04-24 10:09 | 22.32860 | 91.22289 | 34780 ft | 555 kts | 98° |
| 2026-04-24 10:10 | 22.31831 | 91.30606 | 34784 ft | 555 kts | 98° |
| 2026-04-24 10:10 | 22.30811 | 91.38822 | 34786 ft | 555 kts | 98° |
| 2026-04-24 10:11 | 22.29856 | 91.47088 | 34782 ft | 555 kts | 97° |
| 2026-04-24 10:11 | 22.28939 | 91.55366 | 34778 ft | 555 kts | 97° |
| 2026-04-24 10:12 | 22.28002 | 91.63644 | 34780 ft | 555 kts | 98° |
| 2026-04-24 10:12 | 22.27053 | 91.71919 | 34775 ft | 556 kts | 98° |
| 2026-04-24 10:13 | 22.26218 | 91.80211 | 34763 ft | 556 kts | 92° |
| 2026-04-24 10:13 | 22.26461 | 91.88534 | 34782 ft | 555 kts | 81° |
| 2026-04-24 10:14 | 22.27657 | 91.96760 | 34789 ft | 555 kts | 79° |
| 2026-04-24 10:14 | 22.28865 | 92.04996 | 34785 ft | 555 kts | 79° |
| 2026-04-24 10:15 | 22.30004 | 92.13245 | 34782 ft | 556 kts | 80° |
| 2026-04-24 10:15 | 22.31125 | 92.21511 | 34786 ft | 556 kts | 80° |
| 2026-04-24 10:16 | 22.32251 | 92.29771 | 34779 ft | 556 kts | 80° |
| 2026-04-24 10:16 | 22.33388 | 92.38031 | 34772 ft | 556 kts | 80° |
| 2026-04-24 10:17 | 22.34513 | 92.46246 | 34785 ft | 555 kts | 80° |
| 2026-04-24 10:17 | 22.35638 | 92.54500 | 34783 ft | 555 kts | 80° |
| 2026-04-24 10:18 | 22.36759 | 92.62747 | 34799 ft | 555 kts | 80° |
| 2026-04-24 10:18 | 22.37874 | 92.70993 | 34797 ft | 555 kts | 80° |
| 2026-04-24 10:19 | 22.38993 | 92.79251 | 34819 ft | 555 kts | 80° |
| 2026-04-24 10:19 | 22.40099 | 92.87513 | 34810 ft | 556 kts | 80° |
| 2026-04-24 10:20 | 22.41209 | 92.95769 | 34824 ft | 555 kts | 80° |
| 2026-04-24 10:20 | 22.42313 | 93.04022 | 34840 ft | 555 kts | 80° |
| 2026-04-24 10:21 | 22.43415 | 93.12279 | 34874 ft | 555 kts | 80° |
| 2026-04-24 10:21 | 22.44508 | 93.20534 | 34894 ft | 555 kts | 80° |
| 2026-04-24 10:22 | 22.45611 | 93.28857 | 34871 ft | 556 kts | 80° |
| 2026-04-24 10:22 | 22.46699 | 93.37117 | 34874 ft | 554 kts | 80° |
| 2026-04-24 10:23 | 22.47770 | 93.45298 | 34884 ft | 553 kts | 80° |
| 2026-04-24 10:23 | 22.48848 | 93.53546 | 34845 ft | 554 kts | 81° |
| 2026-04-24 10:24 | 22.49916 | 93.61802 | 34832 ft | 554 kts | 80° |
| 2026-04-24 10:24 | 22.50991 | 93.70041 | 34848 ft | 553 kts | 81° |
| 2026-04-24 10:25 | 22.52053 | 93.78290 | 34844 ft | 554 kts | 81° |
| 2026-04-24 10:25 | 22.53111 | 93.86540 | 34804 ft | 553 kts | 80° |
| 2026-04-24 10:26 | 22.54164 | 93.94783 | 34796 ft | 552 kts | 80° |
| 2026-04-24 10:26 | 22.55214 | 94.02994 | 34769 ft | 552 kts | 80° |
| 2026-04-24 10:27 | 22.56257 | 94.11228 | 34764 ft | 553 kts | 80° |
| 2026-04-24 10:27 | 22.57297 | 94.19469 | 34755 ft | 554 kts | 81° |
| 2026-04-24 10:28 | 22.58327 | 94.27682 | 34732 ft | 554 kts | 80° |
| 2026-04-24 10:28 | 22.59372 | 94.36003 | 34737 ft | 554 kts | 80° |
| 2026-04-24 10:29 | 22.60397 | 94.44204 | 34725 ft | 554 kts | 80° |
| 2026-04-24 10:29 | 22.61420 | 94.52450 | 34743 ft | 552 kts | 80° |
| 2026-04-24 10:30 | 22.62437 | 94.60681 | 34732 ft | 552 kts | 80° |
| 2026-04-24 10:30 | 22.63454 | 94.68917 | 34731 ft | 552 kts | 80° |
| 2026-04-24 10:31 | 22.64462 | 94.77152 | 34722 ft | 551 kts | 80° |
| 2026-04-24 10:31 | 22.65465 | 94.85371 | 34721 ft | 551 kts | 80° |
| 2026-04-24 10:32 | 22.66465 | 94.93590 | 34717 ft | 551 kts | 80° |
| 2026-04-24 10:32 | 22.67459 | 95.01804 | 34725 ft | 550 kts | 81° |
| 2026-04-24 10:33 | 22.68449 | 95.10014 | 34714 ft | 550 kts | 81° |
| 2026-04-24 10:33 | 22.69434 | 95.18221 | 34711 ft | 549 kts | 81° |
| 2026-04-24 10:34 | 22.70414 | 95.26421 | 34714 ft | 550 kts | 81° |
| 2026-04-24 10:34 | 22.71393 | 95.34659 | 34729 ft | 552 kts | 81° |
| 2026-04-24 10:35 | 22.72373 | 95.42927 | 34716 ft | 555 kts | 81° |
| 2026-04-24 10:35 | 22.73353 | 95.51241 | 34715 ft | 557 kts | 81° |
| 2026-04-24 10:36 | 22.74330 | 95.59573 | 34711 ft | 558 kts | 81° |
| 2026-04-24 10:36 | 22.75305 | 95.67922 | 34710 ft | 558 kts | 81° |
| 2026-04-24 10:37 | 22.76274 | 95.76260 | 34705 ft | 558 kts | 81° |
| 2026-04-24 10:37 | 22.77239 | 95.84594 | 34707 ft | 557 kts | 81° |
| 2026-04-24 10:38 | 22.78197 | 95.92914 | 34713 ft | 556 kts | 81° |
| 2026-04-24 10:38 | 22.79149 | 96.01221 | 34731 ft | 555 kts | 81° |
| 2026-04-24 10:39 | 22.80098 | 96.09529 | 34746 ft | 555 kts | 81° |
| 2026-04-24 10:39 | 22.81041 | 96.17842 | 34731 ft | 556 kts | 81° |
| 2026-04-24 10:40 | 22.81981 | 96.26152 | 34779 ft | 556 kts | 81° |
| 2026-04-24 10:40 | 22.82918 | 96.34474 | 34778 ft | 556 kts | 81° |
| 2026-04-24 10:41 | 22.83838 | 96.42741 | 34774 ft | 555 kts | 81° |
| 2026-04-24 10:41 | 22.84771 | 96.51057 | 34769 ft | 556 kts | 80° |
| 2026-04-24 10:42 | 22.85711 | 96.59412 | 34810 ft | 555 kts | 81° |
| 2026-04-24 10:42 | 22.86611 | 96.67687 | 34788 ft | 557 kts | 81° |
| 2026-04-24 10:43 | 22.87526 | 96.76046 | 34791 ft | 559 kts | 81° |
| 2026-04-24 10:43 | 22.88445 | 96.84423 | 34821 ft | 560 kts | 81° |
| 2026-04-24 10:44 | 22.89345 | 96.92809 | 34808 ft | 560 kts | 81° |
| 2026-04-24 10:44 | 22.90267 | 97.01201 | 34795 ft | 561 kts | 81° |
| 2026-04-24 10:45 | 22.91177 | 97.09600 | 34813 ft | 560 kts | 81° |
| 2026-04-24 10:45 | 22.92071 | 97.17995 | 34776 ft | 560 kts | 81° |
| 2026-04-24 10:46 | 22.92963 | 97.26388 | 34797 ft | 559 kts | 81° |
| 2026-04-24 10:46 | 22.93851 | 97.34754 | 34817 ft | 558 kts | 81° |
| 2026-04-24 10:47 | 22.94739 | 97.43150 | 34784 ft | 561 kts | 81° |
| 2026-04-24 10:47 | 22.95624 | 97.51567 | 34782 ft | 563 kts | 81° |
| 2026-04-24 10:48 | 22.96504 | 97.60005 | 34743 ft | 564 kts | 81° |
| 2026-04-24 10:48 | 22.97383 | 97.68462 | 34755 ft | 564 kts | 81° |
| 2026-04-24 10:49 | 22.98701 | 97.76822 | 34758 ft | 559 kts | 71° |
| 2026-04-24 10:49 | 23.01181 | 97.84756 | 34774 ft | 554 kts | 64° |
| 2026-04-24 10:50 | 23.03945 | 97.92563 | 34772 ft | 554 kts | 64° |
| 2026-04-24 10:50 | 23.06666 | 98.00396 | 34774 ft | 555 kts | 64° |
| 2026-04-24 10:51 | 23.09347 | 98.08253 | 34786 ft | 555 kts | 64° |
| 2026-04-24 10:51 | 23.12004 | 98.16067 | 34777 ft | 555 kts | 64° |
| 2026-04-24 10:52 | 23.14673 | 98.23933 | 34777 ft | 555 kts | 64° |
| 2026-04-24 10:52 | 23.17350 | 98.31785 | 34795 ft | 554 kts | 65° |
| 2026-04-24 10:53 | 23.19999 | 98.39643 | 34791 ft | 554 kts | 64° |
| 2026-04-24 10:53 | 23.22221 | 98.46231 | 34798 ft | 555 kts | 64° |
| 2026-04-24 10:54 | 23.24884 | 98.54114 | 34775 ft | 556 kts | 64° |
| 2026-04-24 10:54 | 23.27545 | 98.62006 | 34793 ft | 556 kts | 64° |
| 2026-04-24 10:55 | 23.30201 | 98.69897 | 34790 ft | 555 kts | 64° |
| 2026-04-24 10:55 | 23.32847 | 98.77800 | 34766 ft | 556 kts | 64° |
| 2026-04-24 10:56 | 23.35498 | 98.85694 | 34790 ft | 556 kts | 64° |
| 2026-04-24 10:56 | 23.38110 | 98.93555 | 34798 ft | 556 kts | 65° |
| 2026-04-24 10:57 | 23.40622 | 99.01530 | 34823 ft | 556 kts | 66° |
| 2026-04-24 10:57 | 23.43090 | 99.09537 | 34840 ft | 558 kts | 66° |
| 2026-04-24 10:58 | 23.45577 | 99.17559 | 34820 ft | 560 kts | 65° |
| 2026-04-24 10:58 | 23.48085 | 99.25597 | 34830 ft | 561 kts | 66° |
| 2026-04-24 10:59 | 23.50575 | 99.33626 | 34808 ft | 557 kts | 66° |
| 2026-04-24 10:59 | 23.53232 | 99.41498 | 34833 ft | 549 kts | 59° |
| 2026-04-24 11:00 | 23.56824 | 99.48746 | 34859 ft | 541 kts | 53° |
| 2026-04-24 11:00 | 23.60627 | 99.55842 | 34838 ft | 542 kts | 53° |
| 2026-04-24 11:01 | 23.64392 | 99.62969 | 34821 ft | 544 kts | 53° |
| 2026-04-24 11:01 | 23.68128 | 99.70142 | 34845 ft | 544 kts | 53° |
| 2026-04-24 11:02 | 23.71847 | 99.77317 | 34904 ft | 541 kts | 53° |
| 2026-04-24 11:02 | 23.75566 | 99.84487 | 34883 ft | 543 kts | 53° |
| 2026-04-24 11:03 | 23.79295 | 99.91663 | 34877 ft | 545 kts | 54° |
| 2026-04-24 11:03 | 23.83032 | 99.98878 | 34832 ft | 546 kts | 55° |
| 2026-04-24 11:04 | 23.86750 | 100.06078 | 34843 ft | 543 kts | 54° |
| 2026-04-24 11:04 | 23.90447 | 100.13243 | 34852 ft | 541 kts | 54° |
| 2026-04-24 11:05 | 23.94110 | 100.20350 | 34855 ft | 540 kts | 54° |
| 2026-04-24 11:05 | 23.97794 | 100.27503 | 34850 ft | 540 kts | 55° |
| 2026-04-24 11:06 | 24.01466 | 100.34655 | 34843 ft | 539 kts | 54° |
| 2026-04-24 11:06 | 24.05129 | 100.41787 | 34863 ft | 538 kts | 55° |
| 2026-04-24 11:07 | 24.10607 | 100.52480 | 34876 ft | 535 kts | 55° |
| 2026-04-24 11:07 | 24.14232 | 100.59604 | 34865 ft | 536 kts | 56° |
| 2026-04-24 11:08 | 24.17812 | 100.66751 | 34868 ft | 535 kts | 56° |
| 2026-04-24 11:08 | 24.21381 | 100.73898 | 34885 ft | 534 kts | 56° |
| 2026-04-24 11:09 | 24.24940 | 100.81035 | 34887 ft | 534 kts | 56° |
| 2026-04-24 11:09 | 24.28509 | 100.88176 | 34892 ft | 534 kts | 56° |
| 2026-04-24 11:10 | 24.32070 | 100.95317 | 34920 ft | 534 kts | 56° |
| 2026-04-24 11:10 | 24.35633 | 101.02469 | 34902 ft | 535 kts | 56° |
| 2026-04-24 11:11 | 24.39196 | 101.09632 | 34903 ft | 534 kts | 56° |
| 2026-04-24 11:11 | 24.42744 | 101.16790 | 34901 ft | 534 kts | 56° |
| 2026-04-24 11:12 | 24.46266 | 101.23904 | 34903 ft | 533 kts | 56° |
| 2026-04-24 11:12 | 24.49804 | 101.31051 | 34906 ft | 533 kts | 56° |
| 2026-04-24 11:13 | 24.53337 | 101.38201 | 34898 ft | 532 kts | 56° |
| 2026-04-24 11:13 | 24.56855 | 101.45337 | 34897 ft | 530 kts | 56° |
| 2026-04-24 11:14 | 24.60355 | 101.52434 | 34932 ft | 527 kts | 56° |
| 2026-04-24 11:14 | 24.63818 | 101.59505 | 34935 ft | 524 kts | 57° |
| 2026-04-24 11:15 | 24.67239 | 101.66572 | 34943 ft | 523 kts | 57° |
| 2026-04-24 11:15 | 24.70648 | 101.73632 | 34934 ft | 522 kts | 57° |
| 2026-04-24 11:16 | 24.74050 | 101.80683 | 34945 ft | 521 kts | 57° |
| 2026-04-24 11:16 | 24.77448 | 101.87728 | 34953 ft | 522 kts | 57° |
| 2026-04-24 11:17 | 24.80853 | 101.94793 | 34978 ft | 523 kts | 57° |
| 2026-04-24 11:17 | 24.84262 | 102.01884 | 34967 ft | 525 kts | 57° |
| 2026-04-24 11:18 | 24.87678 | 102.08998 | 35001 ft | 526 kts | 57° |
| 2026-04-24 11:18 | 24.91069 | 102.16077 | 34990 ft | 525 kts | 57° |
| 2026-04-24 11:19 | 24.94497 | 102.23244 | 35023 ft | 526 kts | 57° |
| 2026-04-24 11:19 | 24.97881 | 102.30327 | 35025 ft | 526 kts | 57° |
| 2026-04-24 11:20 | 25.01285 | 102.37467 | 35061 ft | 526 kts | 57° |
| 2026-04-24 11:20 | 25.04683 | 102.44609 | 35068 ft | 525 kts | 58° |
| 2026-04-24 11:21 | 25.06122 | 102.48290 | 35088 ft | 529 kts | 71° |
| 2026-04-24 11:21 | 25.06630 | 102.52322 | 35093 ft | 535 kts | 89° |
| 2026-04-24 11:21 | 25.06189 | 102.56399 | 35104 ft | 538 kts | 104° |
| 2026-04-24 11:21 | 25.04846 | 102.60241 | 35101 ft | 536 kts | 117° |
| 2026-04-24 11:22 | 25.01407 | 102.67505 | 35141 ft | 537 kts | 117° |
| 2026-04-24 11:22 | 24.98042 | 102.74879 | 35149 ft | 539 kts | 116° |
| 2026-04-24 11:23 | 24.94754 | 102.82320 | 35154 ft | 541 kts | 116° |
| 2026-04-24 11:23 | 24.91464 | 102.89741 | 35145 ft | 542 kts | 116° |
| 2026-04-24 11:24 | 24.88190 | 102.97212 | 35144 ft | 542 kts | 116° |
| 2026-04-24 11:24 | 24.84930 | 103.04686 | 35142 ft | 541 kts | 116° |
| 2026-04-24 11:25 | 24.81665 | 103.12149 | 35137 ft | 540 kts | 116° |
| 2026-04-24 11:25 | 24.78399 | 103.19581 | 35130 ft | 539 kts | 117° |
| 2026-04-24 11:26 | 24.75135 | 103.26995 | 35115 ft | 538 kts | 117° |
| 2026-04-24 11:26 | 24.71880 | 103.34382 | 35117 ft | 536 kts | 117° |
| 2026-04-24 11:27 | 24.68630 | 103.41745 | 35119 ft | 534 kts | 117° |
| 2026-04-24 11:27 | 24.65386 | 103.49083 | 35106 ft | 534 kts | 117° |
| 2026-04-24 11:28 | 24.62128 | 103.56441 | 35115 ft | 536 kts | 117° |
| 2026-04-24 11:28 | 24.58839 | 103.63858 | 35117 ft | 543 kts | 117° |
| 2026-04-24 11:29 | 24.55545 | 103.71327 | 35097 ft | 543 kts | 115° |
| 2026-04-24 11:29 | 24.53038 | 103.79129 | 35097 ft | 542 kts | 103° |
| 2026-04-24 11:30 | 24.51384 | 103.87205 | 35103 ft | 542 kts | 102° |
| 2026-04-24 11:30 | 24.49729 | 103.95271 | 35098 ft | 541 kts | 103° |
| 2026-04-24 11:31 | 24.48027 | 104.03320 | 35095 ft | 542 kts | 103° |
| 2026-04-24 11:31 | 24.46297 | 104.11381 | 35098 ft | 543 kts | 103° |
| 2026-04-24 11:32 | 24.44561 | 104.19452 | 35090 ft | 544 kts | 103° |
| 2026-04-24 11:32 | 24.42833 | 104.27491 | 35070 ft | 545 kts | 103° |
| 2026-04-24 11:33 | 24.41085 | 104.35579 | 35069 ft | 545 kts | 103° |
| 2026-04-24 11:33 | 24.39332 | 104.43674 | 35059 ft | 545 kts | 103° |
| 2026-04-24 11:34 | 24.37576 | 104.51767 | 35035 ft | 545 kts | 103° |
| 2026-04-24 11:34 | 24.35814 | 104.59844 | 35041 ft | 545 kts | 104° |
| 2026-04-24 11:35 | 24.34053 | 104.67921 | 35035 ft | 544 kts | 103° |
| 2026-04-24 11:35 | 24.32288 | 104.76005 | 35025 ft | 545 kts | 104° |
| 2026-04-24 11:36 | 24.30528 | 104.84028 | 35019 ft | 544 kts | 104° |
| 2026-04-24 11:36 | 24.28754 | 104.92089 | 35032 ft | 544 kts | 104° |
| 2026-04-24 11:37 | 24.26975 | 105.00143 | 34997 ft | 543 kts | 104° |
| 2026-04-24 11:37 | 24.25197 | 105.08210 | 35029 ft | 548 kts | 104° |
| 2026-04-24 11:38 | 24.23384 | 105.16364 | 35028 ft | 554 kts | 104° |
| 2026-04-24 11:38 | 24.21542 | 105.24580 | 35032 ft | 557 kts | 105° |
| 2026-04-24 11:39 | 24.19562 | 105.32774 | 35038 ft | 557 kts | 106° |
| 2026-04-24 11:39 | 24.17546 | 105.40959 | 35029 ft | 557 kts | 105° |
| 2026-04-24 11:40 | 24.15555 | 105.49133 | 35040 ft | 553 kts | 105° |
| 2026-04-24 11:40 | 24.13586 | 105.57252 | 35024 ft | 551 kts | 105° |
| 2026-04-24 11:41 | 24.11610 | 105.65349 | 35043 ft | 551 kts | 106° |
| 2026-04-24 11:41 | 24.09656 | 105.73477 | 35015 ft | 553 kts | 104° |
| 2026-04-24 11:42 | 24.08026 | 105.81699 | 35017 ft | 552 kts | 102° |
| 2026-04-24 11:42 | 24.06733 | 105.88532 | 35044 ft | 551 kts | 102° |
| 2026-04-24 11:43 | 24.04864 | 105.98118 | 35067 ft | 552 kts | 103° |
| 2026-04-24 11:43 | 24.03495 | 106.04967 | 35036 ft | 555 kts | 103° |
| 2026-04-24 11:44 | 24.01825 | 106.13232 | 35020 ft | 558 kts | 103° |
| 2026-04-24 11:44 | 24.00151 | 106.21530 | 35025 ft | 559 kts | 103° |
| 2026-04-24 11:45 | 23.98476 | 106.29840 | 35001 ft | 559 kts | 103° |
| 2026-04-24 11:45 | 23.96796 | 106.38134 | 35018 ft | 558 kts | 104° |
| 2026-04-24 11:46 | 23.95109 | 106.46420 | 35003 ft | 559 kts | 104° |
| 2026-04-24 11:46 | 23.93420 | 106.54716 | 35002 ft | 559 kts | 104° |
| 2026-04-24 11:47 | 23.92003 | 106.63063 | 35004 ft | 559 kts | 95° |
| 2026-04-24 11:47 | 23.91466 | 106.71490 | 35012 ft | 560 kts | 93° |
| 2026-04-24 11:48 | 23.90984 | 106.79972 | 35000 ft | 560 kts | 94° |
| 2026-04-24 11:48 | 23.90448 | 106.88475 | 34992 ft | 560 kts | 94° |
| 2026-04-24 11:49 | 23.89880 | 106.96955 | 34997 ft | 559 kts | 94° |
| 2026-04-24 11:49 | 23.89299 | 107.05423 | 35000 ft | 559 kts | 95° |
| 2026-04-24 11:50 | 23.88719 | 107.13917 | 34994 ft | 561 kts | 95° |
| 2026-04-24 11:50 | 23.88136 | 107.22422 | 34983 ft | 561 kts | 95° |
| 2026-04-24 11:51 | 23.87550 | 107.30929 | 34991 ft | 562 kts | 95° |
| 2026-04-24 11:51 | 23.86956 | 107.39440 | 34992 ft | 562 kts | 95° |
| 2026-04-24 11:52 | 23.86358 | 107.47965 | 34997 ft | 563 kts | 95° |
| 2026-04-24 11:52 | 23.85748 | 107.56510 | 34982 ft | 565 kts | 95° |
| 2026-04-24 11:53 | 23.85143 | 107.65002 | 34998 ft | 565 kts | 95° |
| 2026-04-24 11:53 | 23.84531 | 107.73551 | 35002 ft | 565 kts | 95° |
| 2026-04-24 11:54 | 23.83909 | 107.82125 | 35001 ft | 567 kts | 95° |
| 2026-04-24 11:54 | 23.83350 | 107.90742 | 34992 ft | 570 kts | 94° |
| 2026-04-24 11:55 | 23.82946 | 107.99383 | 34974 ft | 569 kts | 94° |
| 2026-04-24 11:55 | 23.82531 | 108.08001 | 34986 ft | 567 kts | 94° |
| 2026-04-24 11:56 | 23.82080 | 108.16608 | 34986 ft | 568 kts | 94° |
| 2026-04-24 11:56 | 23.81844 | 108.20927 | 35099 ft | 571 kts | 94° |
| 2026-04-24 11:56 | 23.81601 | 108.25248 | 35433 ft | 570 kts | 94° |
| 2026-04-24 11:57 | 23.81355 | 108.29554 | 35810 ft | 567 kts | 95° |
| 2026-04-24 11:57 | 23.81109 | 108.33855 | 36122 ft | 567 kts | 95° |
| 2026-04-24 11:57 | 23.80863 | 108.38130 | 36431 ft | 566 kts | 95° |
| 2026-04-24 11:57 | 23.80614 | 108.42433 | 36674 ft | 567 kts | 95° |
| 2026-04-24 11:58 | 23.80368 | 108.46734 | 36877 ft | 568 kts | 96° |
| 2026-04-24 11:58 | 23.80119 | 108.51049 | 36928 ft | 572 kts | 96° |
| 2026-04-24 11:58 | 23.79612 | 108.59728 | 37009 ft | 573 kts | 96° |
| 2026-04-24 11:59 | 23.79105 | 108.68371 | 36990 ft | 569 kts | 96° |
| 2026-04-24 11:59 | 23.78596 | 108.76976 | 36994 ft | 567 kts | 96° |
| 2026-04-24 12:00 | 23.78082 | 108.85554 | 36986 ft | 566 kts | 96° |
| 2026-04-24 12:00 | 23.77562 | 108.94131 | 36985 ft | 566 kts | 96° |
| 2026-04-24 12:01 | 23.77039 | 109.02706 | 36991 ft | 567 kts | 96° |
| 2026-04-24 12:01 | 23.76510 | 109.11304 | 36982 ft | 568 kts | 97° |
| 2026-04-24 12:02 | 23.75413 | 109.19808 | 36986 ft | 564 kts | 107° |
| 2026-04-24 12:02 | 23.73654 | 109.28148 | 36992 ft | 565 kts | 108° |
| 2026-04-24 12:03 | 23.71900 | 109.36508 | 36976 ft | 566 kts | 107° |
| 2026-04-24 12:03 | 23.70200 | 109.44905 | 36985 ft | 567 kts | 107° |
| 2026-04-24 12:04 | 23.68519 | 109.53247 | 36992 ft | 567 kts | 107° |
| 2026-04-24 12:04 | 23.66812 | 109.61639 | 36969 ft | 566 kts | 107° |
| 2026-04-24 12:05 | 23.65094 | 109.70016 | 36988 ft | 565 kts | 107° |
| 2026-04-24 12:05 | 23.63367 | 109.78371 | 36996 ft | 564 kts | 107° |
| 2026-04-24 12:06 | 23.61641 | 109.86719 | 36987 ft | 564 kts | 108° |
| 2026-04-24 12:06 | 23.59916 | 109.95053 | 36989 ft | 565 kts | 108° |
| 2026-04-24 12:07 | 23.58182 | 110.03395 | 37004 ft | 563 kts | 108° |
| 2026-04-24 12:07 | 23.56453 | 110.11703 | 37005 ft | 561 kts | 108° |
| 2026-04-24 12:08 | 23.54722 | 110.19983 | 37005 ft | 560 kts | 108° |
| 2026-04-24 12:08 | 23.52987 | 110.28265 | 37000 ft | 560 kts | 108° |
| 2026-04-24 12:09 | 23.51249 | 110.36540 | 36994 ft | 560 kts | 108° |
| 2026-04-24 12:09 | 23.49551 | 110.44819 | 37000 ft | 560 kts | 107° |
| 2026-04-24 12:10 | 23.47877 | 110.53110 | 37002 ft | 560 kts | 107° |
| 2026-04-24 12:11 | 23.45346 | 110.65535 | 37000 ft | 560 kts | 108° |
| 2026-04-24 12:11 | 23.43643 | 110.73819 | 37007 ft | 561 kts | 108° |
| 2026-04-24 12:12 | 23.41900 | 110.82088 | 36994 ft | 560 kts | 108° |
| 2026-04-24 12:12 | 23.40133 | 110.90362 | 37007 ft | 560 kts | 108° |
| 2026-04-24 12:13 | 23.38387 | 110.98552 | 37012 ft | 559 kts | 108° |
| 2026-04-24 12:13 | 23.36629 | 111.06805 | 37016 ft | 559 kts | 108° |
| 2026-04-24 12:14 | 23.34869 | 111.15045 | 37005 ft | 559 kts | 108° |
| 2026-04-24 12:14 | 23.33171 | 111.23301 | 37017 ft | 559 kts | 107° |
| 2026-04-24 12:15 | 23.31517 | 111.31572 | 37017 ft | 559 kts | 107° |
| 2026-04-24 12:15 | 23.29847 | 111.39829 | 37020 ft | 559 kts | 107° |
| 2026-04-24 12:16 | 23.28164 | 111.48078 | 37029 ft | 559 kts | 107° |
| 2026-04-24 12:16 | 23.26471 | 111.56318 | 37019 ft | 558 kts | 108° |
| 2026-04-24 12:17 | 23.24709 | 111.64525 | 37034 ft | 558 kts | 108° |
| 2026-04-24 12:17 | 23.22933 | 111.72748 | 37028 ft | 558 kts | 108° |
| 2026-04-24 12:18 | 23.21172 | 111.80964 | 37026 ft | 558 kts | 108° |
| 2026-04-24 12:18 | 23.19434 | 111.89186 | 37031 ft | 558 kts | 108° |
| 2026-04-24 12:19 | 23.17738 | 111.97410 | 37033 ft | 558 kts | 108° |
| 2026-04-24 12:19 | 23.16035 | 112.05641 | 37034 ft | 558 kts | 108° |
| 2026-04-24 12:20 | 23.14325 | 112.13859 | 37016 ft | 557 kts | 108° |
| 2026-04-24 12:20 | 23.12615 | 112.22002 | 37028 ft | 556 kts | 108° |
| 2026-04-24 12:21 | 23.10885 | 112.30241 | 37047 ft | 556 kts | 108° |
| 2026-04-24 12:21 | 23.09170 | 112.38418 | 37055 ft | 556 kts | 108° |
| 2026-04-24 12:22 | 23.07461 | 112.46557 | 37027 ft | 557 kts | 106° |
| 2026-04-24 12:22 | 23.06450 | 112.54923 | 37041 ft | 562 kts | 97° |
| 2026-04-24 12:23 | 23.05963 | 112.63396 | 37042 ft | 563 kts | 97° |
| 2026-04-24 12:23 | 23.05455 | 112.71874 | 37044 ft | 562 kts | 97° |
| 2026-04-24 12:24 | 23.04887 | 112.80338 | 37033 ft | 561 kts | 98° |
| 2026-04-24 12:24 | 23.04302 | 112.88778 | 37041 ft | 561 kts | 98° |
| 2026-04-24 12:25 | 23.03718 | 112.97231 | 37047 ft | 561 kts | 98° |
| 2026-04-24 12:25 | 23.03134 | 113.05670 | 37038 ft | 561 kts | 98° |
| 2026-04-24 12:26 | 23.02364 | 113.14055 | 37032 ft | 552 kts | 108° |
| 2026-04-24 12:26 | 23.01152 | 113.17959 | 37049 ft | 539 kts | 122° |
| 2026-04-24 12:26 | 22.99343 | 113.21478 | 37052 ft | 532 kts | 132° |
| 2026-04-24 12:26 | 22.97052 | 113.24570 | 37047 ft | 520 kts | 145° |
| 2026-04-24 12:27 | 22.94408 | 113.27217 | 37061 ft | 518 kts | 147° |
| 2026-04-24 12:27 | 22.89037 | 113.32520 | 37019 ft | 525 kts | 146° |
| 2026-04-24 12:28 | 22.83681 | 113.37935 | 37036 ft | 524 kts | 145° |
| 2026-04-24 12:29 | 22.73479 | 113.48389 | 37042 ft | 515 kts | 145° |
| 2026-04-24 12:29 | 22.68264 | 113.53709 | 37050 ft | 515 kts | 145° |
| 2026-04-24 12:30 | 22.63040 | 113.59029 | 37059 ft | 516 kts | 145° |
| 2026-04-24 12:30 | 22.57805 | 113.64356 | 37064 ft | 517 kts | 145° |
| 2026-04-24 12:31 | 22.52560 | 113.69691 | 37056 ft | 518 kts | 144° |
| 2026-04-24 12:31 | 22.47301 | 113.75033 | 37016 ft | 519 kts | 144° |
| 2026-04-24 12:32 | 22.42036 | 113.80377 | 37050 ft | 519 kts | 144° |
| 2026-04-24 12:32 | 22.36812 | 113.85672 | 37050 ft | 519 kts | 144° |
| 2026-04-24 12:33 | 22.31755 | 113.91385 | 37051 ft | 524 kts | 139° |
| 2026-04-24 12:33 | 22.26907 | 113.97205 | 37057 ft | 524 kts | 139° |
| 2026-04-24 12:34 | 22.21995 | 114.03030 | 37041 ft | 525 kts | 139° |
| 2026-04-24 12:34 | 22.17393 | 114.09202 | 37027 ft | 528 kts | 134° |
| 2026-04-24 12:35 | 22.12895 | 114.15468 | 37029 ft | 527 kts | 134° |
| 2026-04-24 12:35 | 22.08395 | 114.21708 | 37026 ft | 527 kts | 134° |
| 2026-04-24 12:36 | 22.03880 | 114.27916 | 37033 ft | 526 kts | 134° |
| 2026-04-24 12:36 | 21.99354 | 114.34115 | 37029 ft | 526 kts | 134° |
| 2026-04-24 12:37 | 21.94837 | 114.40298 | 37027 ft | 525 kts | 135° |
| 2026-04-24 12:37 | 21.90318 | 114.46480 | 37030 ft | 524 kts | 135° |
| 2026-04-24 12:38 | 21.85812 | 114.52637 | 37020 ft | 523 kts | 135° |
| 2026-04-24 12:38 | 21.81315 | 114.58775 | 37021 ft | 522 kts | 135° |
| 2026-04-24 12:39 | 21.72354 | 114.70986 | 37014 ft | 518 kts | 134° |
| 2026-04-24 12:40 | 21.67888 | 114.77061 | 37017 ft | 517 kts | 134° |
| 2026-04-24 12:40 | 21.63433 | 114.83113 | 37013 ft | 516 kts | 134° |
| 2026-04-24 12:41 | 21.58976 | 114.89161 | 37014 ft | 516 kts | 134° |
| 2026-04-24 12:41 | 21.54517 | 114.95206 | 37014 ft | 516 kts | 134° |
| 2026-04-24 12:42 | 21.50052 | 115.01253 | 37012 ft | 517 kts | 134° |
| 2026-04-24 12:42 | 21.45589 | 115.07292 | 37010 ft | 515 kts | 134° |
| 2026-04-24 12:43 | 21.41890 | 115.12292 | 36982 ft | 514 kts | 134° |
| 2026-04-24 12:43 | 21.37455 | 115.18281 | 37008 ft | 512 kts | 134° |
| 2026-04-24 12:44 | 21.33021 | 115.24261 | 37008 ft | 511 kts | 134° |
| 2026-04-24 12:44 | 21.28596 | 115.30223 | 37015 ft | 511 kts | 134° |
| 2026-04-24 12:45 | 21.24274 | 115.36288 | 37010 ft | 515 kts | 128° |
| 2026-04-24 12:45 | 21.20644 | 115.42960 | 37020 ft | 519 kts | 124° |
| 2026-04-24 12:46 | 21.17112 | 115.49721 | 37014 ft | 520 kts | 124° |
| 2026-04-24 12:46 | 21.13541 | 115.56466 | 37014 ft | 521 kts | 124° |
| 2026-04-24 12:47 | 21.09349 | 115.64294 | 37010 ft | 522 kts | 124° |
| 2026-04-24 12:47 | 21.06317 | 115.69942 | 37016 ft | 522 kts | 124° |
| 2026-04-24 12:48 | 21.02729 | 115.76623 | 37015 ft | 521 kts | 124° |
| 2026-04-24 12:48 | 20.99117 | 115.83345 | 37011 ft | 520 kts | 124° |
| 2026-04-24 12:49 | 20.95511 | 115.90051 | 37015 ft | 519 kts | 124° |
| 2026-04-24 12:49 | 20.91907 | 115.96741 | 37012 ft | 518 kts | 124° |
| 2026-04-24 12:50 | 20.88306 | 116.03420 | 37016 ft | 518 kts | 124° |
| 2026-04-24 12:50 | 20.84111 | 116.09554 | 37016 ft | 506 kts | 140° |
| 2026-04-24 12:51 | 20.78759 | 116.14300 | 37014 ft | 495 kts | 153° |
| 2026-04-24 12:51 | 20.72914 | 116.18181 | 37017 ft | 495 kts | 154° |
| 2026-04-24 12:52 | 20.67057 | 116.22061 | 37013 ft | 496 kts | 154° |
| 2026-04-24 12:52 | 20.61213 | 116.25989 | 37001 ft | 497 kts | 153° |
| 2026-04-24 12:53 | 20.55375 | 116.29938 | 37018 ft | 497 kts | 153° |
| 2026-04-24 12:53 | 20.49574 | 116.33861 | 37026 ft | 497 kts | 153° |
| 2026-04-24 12:54 | 20.43733 | 116.37803 | 37005 ft | 497 kts | 153° |
| 2026-04-24 12:54 | 20.37894 | 116.41739 | 37003 ft | 496 kts | 153° |
| 2026-04-24 12:55 | 20.32062 | 116.45667 | 37013 ft | 496 kts | 153° |
| 2026-04-24 12:55 | 20.26230 | 116.49591 | 36997 ft | 495 kts | 153° |
| 2026-04-24 12:56 | 20.20410 | 116.53504 | 37002 ft | 495 kts | 153° |
| 2026-04-24 12:56 | 20.14594 | 116.57411 | 37000 ft | 494 kts | 153° |
| 2026-04-24 12:57 | 20.08779 | 116.61314 | 37008 ft | 494 kts | 153° |
| 2026-04-24 12:57 | 20.02967 | 116.65226 | 37009 ft | 495 kts | 150° |
| 2026-04-24 12:58 | 19.97582 | 116.69881 | 37001 ft | 504 kts | 139° |
| 2026-04-24 12:58 | 19.92817 | 116.75392 | 37005 ft | 507 kts | 136° |
| 2026-04-24 12:59 | 19.88103 | 116.80960 | 37001 ft | 507 kts | 136° |
| 2026-04-24 12:59 | 19.83359 | 116.86507 | 37006 ft | 507 kts | 137° |
| 2026-04-24 13:00 | 19.78593 | 116.92030 | 36995 ft | 507 kts | 137° |
| 2026-04-24 13:00 | 19.73811 | 116.97557 | 37007 ft | 508 kts | 137° |
| 2026-04-24 13:01 | 19.69034 | 117.03076 | 37000 ft | 508 kts | 137° |
| 2026-04-24 13:01 | 19.64253 | 117.08596 | 36998 ft | 508 kts | 137° |
| 2026-04-24 13:02 | 19.59468 | 117.14117 | 36981 ft | 508 kts | 136° |
| 2026-04-24 13:02 | 19.54674 | 117.19642 | 36990 ft | 510 kts | 136° |
| 2026-04-24 13:03 | 19.49864 | 117.25181 | 37005 ft | 512 kts | 136° |
| 2026-04-24 13:03 | 19.45032 | 117.30740 | 37004 ft | 514 kts | 136° |
| 2026-04-24 13:04 | 19.40185 | 117.36312 | 36996 ft | 515 kts | 136° |
| 2026-04-24 13:04 | 19.35322 | 117.41897 | 36994 ft | 516 kts | 136° |
| 2026-04-24 13:05 | 19.30455 | 117.47480 | 36993 ft | 516 kts | 136° |
| 2026-04-24 13:05 | 19.25587 | 117.53060 | 36988 ft | 516 kts | 136° |
| 2026-04-24 13:06 | 19.20723 | 117.58630 | 36982 ft | 515 kts | 136° |
| 2026-04-24 13:06 | 19.15864 | 117.64190 | 36991 ft | 514 kts | 136° |
| 2026-04-24 13:07 | 19.11011 | 117.69737 | 36998 ft | 514 kts | 136° |
| 2026-04-24 13:07 | 19.06194 | 117.75239 | 36996 ft | 513 kts | 136° |
| 2026-04-24 13:08 | 19.01347 | 117.80767 | 36996 ft | 513 kts | 136° |
| 2026-04-24 13:08 | 18.96490 | 117.86294 | 36995 ft | 513 kts | 136° |
| 2026-04-24 13:09 | 18.89206 | 117.94572 | 36999 ft | 513 kts | 136° |
| 2026-04-24 13:09 | 18.84345 | 118.00092 | 36983 ft | 513 kts | 135° |
| 2026-04-24 13:10 | 18.79490 | 118.05601 | 37006 ft | 512 kts | 135° |
| 2026-04-24 13:10 | 18.74638 | 118.11104 | 37005 ft | 512 kts | 135° |
| 2026-04-24 13:11 | 18.69786 | 118.16599 | 36982 ft | 512 kts | 135° |
| 2026-04-24 13:11 | 18.64938 | 118.22086 | 36996 ft | 511 kts | 135° |
| 2026-04-24 13:12 | 18.60090 | 118.27567 | 36997 ft | 511 kts | 135° |
| 2026-04-24 13:12 | 18.55239 | 118.33047 | 37001 ft | 511 kts | 135° |
| 2026-04-24 13:13 | 18.50388 | 118.38523 | 36992 ft | 510 kts | 135° |
| 2026-04-24 13:13 | 18.45545 | 118.43985 | 36987 ft | 509 kts | 135° |
| 2026-04-24 13:14 | 18.40714 | 118.49427 | 36990 ft | 508 kts | 135° |
| 2026-04-24 13:14 | 18.35895 | 118.54853 | 36995 ft | 507 kts | 135° |
| 2026-04-24 13:15 | 18.31077 | 118.60271 | 36995 ft | 506 kts | 135° |
| 2026-04-24 13:15 | 18.26294 | 118.65647 | 36995 ft | 506 kts | 135° |
| 2026-04-24 13:16 | 18.21481 | 118.71050 | 36989 ft | 506 kts | 135° |
| 2026-04-24 13:16 | 18.16675 | 118.76442 | 36989 ft | 506 kts | 135° |
| 2026-04-24 13:17 | 18.11865 | 118.81834 | 36994 ft | 506 kts | 135° |
| 2026-04-24 13:17 | 18.07055 | 118.87222 | 36992 ft | 505 kts | 135° |
| 2026-04-24 13:18 | 18.02235 | 118.92593 | 36992 ft | 504 kts | 137° |
| 2026-04-24 13:18 | 17.96853 | 118.97248 | 36998 ft | 500 kts | 148° |
| 2026-04-24 13:19 | 17.90858 | 119.00910 | 36989 ft | 498 kts | 153° |
| 2026-04-24 13:19 | 17.84770 | 119.04366 | 36993 ft | 498 kts | 154° |
| 2026-04-24 13:20 | 17.78687 | 119.07844 | 36989 ft | 498 kts | 153° |
| 2026-04-24 13:20 | 17.72617 | 119.11347 | 36985 ft | 498 kts | 153° |
| 2026-04-24 13:21 | 17.66554 | 119.14857 | 36989 ft | 498 kts | 153° |
| 2026-04-24 13:21 | 17.60493 | 119.18362 | 36990 ft | 498 kts | 153° |
| 2026-04-24 13:22 | 17.54429 | 119.21865 | 36990 ft | 498 kts | 153° |
| 2026-04-24 13:22 | 17.48359 | 119.25367 | 36983 ft | 498 kts | 153° |
| 2026-04-24 13:23 | 17.42290 | 119.28866 | 36981 ft | 498 kts | 152° |
| 2026-04-24 13:23 | 17.36220 | 119.32363 | 36989 ft | 498 kts | 152° |
| 2026-04-24 13:24 | 17.30148 | 119.35858 | 36980 ft | 498 kts | 152° |
| 2026-04-24 13:24 | 17.24078 | 119.39350 | 36985 ft | 498 kts | 152° |
| 2026-04-24 13:25 | 17.18042 | 119.42820 | 36986 ft | 498 kts | 152° |
| 2026-04-24 13:25 | 17.11970 | 119.46307 | 36981 ft | 498 kts | 152° |
| 2026-04-24 13:26 | 17.05893 | 119.49794 | 36976 ft | 499 kts | 152° |
| 2026-04-24 13:26 | 16.99807 | 119.53285 | 36987 ft | 499 kts | 152° |
| 2026-04-24 13:27 | 16.93710 | 119.56779 | 36988 ft | 500 kts | 152° |
| 2026-04-24 13:27 | 16.87600 | 119.60278 | 36990 ft | 501 kts | 152° |
| 2026-04-24 13:28 | 16.81479 | 119.63780 | 36982 ft | 502 kts | 152° |
| 2026-04-24 13:28 | 16.75353 | 119.67283 | 36971 ft | 503 kts | 152° |
| 2026-04-24 13:29 | 16.69215 | 119.70791 | 36974 ft | 503 kts | 152° |
| 2026-04-24 13:29 | 16.63086 | 119.74290 | 36978 ft | 502 kts | 152° |
| 2026-04-24 13:30 | 16.56968 | 119.77780 | 36975 ft | 501 kts | 152° |
| 2026-04-24 13:30 | 16.50842 | 119.81272 | 36971 ft | 502 kts | 152° |
| 2026-04-24 13:31 | 16.44714 | 119.84762 | 36968 ft | 502 kts | 152° |
| 2026-04-24 13:31 | 16.39629 | 119.87658 | 36975 ft | 501 kts | 152° |
| 2026-04-24 13:32 | 16.32525 | 119.91700 | 36973 ft | 500 kts | 152° |
| 2026-04-24 13:32 | 16.27442 | 119.94590 | 36973 ft | 501 kts | 152° |
| 2026-04-24 13:33 | 16.21323 | 119.98066 | 36961 ft | 501 kts | 152° |
| 2026-04-24 13:33 | 16.15199 | 120.01542 | 36973 ft | 501 kts | 152° |
| 2026-04-24 13:34 | 16.09077 | 120.05017 | 36969 ft | 501 kts | 151° |
| 2026-04-24 13:34 | 16.02965 | 120.08481 | 36959 ft | 501 kts | 151° |
| 2026-04-24 13:35 | 15.96858 | 120.11941 | 36962 ft | 500 kts | 151° |
| 2026-04-24 13:35 | 15.90761 | 120.15392 | 36966 ft | 499 kts | 151° |
| 2026-04-24 13:36 | 15.84672 | 120.18838 | 36968 ft | 498 kts | 151° |
| 2026-04-24 13:36 | 15.78576 | 120.22285 | 36642 ft | 504 kts | 152° |
| 2026-04-24 13:37 | 15.75468 | 120.24041 | 35859 ft | 510 kts | 151° |
| 2026-04-24 13:37 | 15.72356 | 120.25800 | 35021 ft | 511 kts | 151° |
| 2026-04-24 13:37 | 15.69227 | 120.27567 | 34134 ft | 512 kts | 151° |
| 2026-04-24 13:37 | 15.66087 | 120.29340 | 33090 ft | 514 kts | 152° |
| 2026-04-24 13:38 | 15.62943 | 120.31117 | 32114 ft | 515 kts | 152° |
| 2026-04-24 13:38 | 15.59802 | 120.32893 | 31418 ft | 509 kts | 152° |
| 2026-04-24 13:38 | 15.56734 | 120.34615 | 31183 ft | 495 kts | 153° |
| 2026-04-24 13:38 | 15.53620 | 120.36079 | 30558 ft | 496 kts | 160° |
| 2026-04-24 13:39 | 15.50352 | 120.37308 | 30077 ft | 500 kts | 161° |
| 2026-04-24 13:39 | 15.47079 | 120.38508 | 29723 ft | 499 kts | 161° |
| 2026-04-24 13:39 | 15.43814 | 120.39706 | 29529 ft | 495 kts | 161° |
| 2026-04-24 13:39 | 15.40589 | 120.40900 | 29320 ft | 491 kts | 161° |
| 2026-04-24 13:40 | 15.37382 | 120.42100 | 29089 ft | 489 kts | 161° |
| 2026-04-24 13:40 | 15.34188 | 120.43304 | 28821 ft | 487 kts | 161° |
| 2026-04-24 13:40 | 15.31013 | 120.44505 | 28555 ft | 485 kts | 161° |
| 2026-04-24 13:40 | 15.27891 | 120.45689 | 28315 ft | 483 kts | 161° |
| 2026-04-24 13:41 | 15.24743 | 120.46882 | 28086 ft | 481 kts | 161° |
| 2026-04-24 13:41 | 15.21561 | 120.48088 | 27854 ft | 479 kts | 161° |
| 2026-04-24 13:41 | 15.18475 | 120.49256 | 27649 ft | 478 kts | 161° |
| 2026-04-24 13:41 | 15.15320 | 120.50449 | 27305 ft | 476 kts | 161° |
| 2026-04-24 13:42 | 15.12255 | 120.51608 | 26664 ft | 474 kts | 161° |
| 2026-04-24 13:42 | 15.09166 | 120.52775 | 26042 ft | 470 kts | 161° |
| 2026-04-24 13:42 | 15.06111 | 120.53929 | 25421 ft | 466 kts | 161° |
| 2026-04-24 13:42 | 15.03070 | 120.55078 | 24796 ft | 463 kts | 161° |
| 2026-04-24 13:43 | 15.00056 | 120.56216 | 24170 ft | 459 kts | 161° |
| 2026-04-24 13:43 | 14.97065 | 120.57345 | 23551 ft | 456 kts | 161° |
| 2026-04-24 13:43 | 14.94093 | 120.58465 | 22835 ft | 453 kts | 161° |
| 2026-04-24 13:43 | 14.91149 | 120.59576 | 22199 ft | 449 kts | 161° |
| 2026-04-24 13:44 | 14.88227 | 120.60677 | 21586 ft | 444 kts | 161° |
| 2026-04-24 13:44 | 14.85343 | 120.61765 | 20999 ft | 440 kts | 161° |
| 2026-04-24 13:44 | 14.82478 | 120.62844 | 20404 ft | 436 kts | 161° |
| 2026-04-24 13:44 | 14.79629 | 120.63918 | 19810 ft | 433 kts | 161° |
| 2026-04-24 13:45 | 14.76807 | 120.64981 | 19214 ft | 431 kts | 160° |
| 2026-04-24 13:45 | 14.73992 | 120.66040 | 18634 ft | 429 kts | 160° |
| 2026-04-24 13:45 | 14.71227 | 120.67082 | 17978 ft | 417 kts | 160° |
| 2026-04-24 13:45 | 14.68548 | 120.68090 | 17387 ft | 402 kts | 160° |
| 2026-04-24 13:46 | 14.65967 | 120.69063 | 16855 ft | 388 kts | 160° |
| 2026-04-24 13:46 | 14.63462 | 120.70004 | 16377 ft | 382 kts | 161° |
| 2026-04-24 13:46 | 14.60948 | 120.70949 | 15866 ft | 387 kts | 160° |
| 2026-04-24 13:46 | 14.58385 | 120.71913 | 15345 ft | 397 kts | 160° |
| 2026-04-24 13:47 | 14.55732 | 120.72611 | 14751 ft | 395 kts | 176° |
| 2026-04-24 13:47 | 14.53017 | 120.72311 | 14232 ft | 392 kts | 197° |
| 2026-04-24 13:47 | 14.50621 | 120.71115 | 13707 ft | 376 kts | 215° |
| 2026-04-24 13:47 | 14.48735 | 120.69407 | 13523 ft | 351 kts | 228° |
| 2026-04-24 13:48 | 14.47402 | 120.67401 | 13357 ft | 326 kts | 240° |
| 2026-04-24 13:48 | 14.46354 | 120.65426 | 13181 ft | 303 kts | 240° |
| 2026-04-24 13:48 | 14.45359 | 120.63593 | 13050 ft | 282 kts | 240° |
| 2026-04-24 13:48 | 14.44419 | 120.61882 | 12785 ft | 267 kts | 240° |
| 2026-04-24 13:49 | 14.43516 | 120.60252 | 12405 ft | 257 kts | 240° |
| 2026-04-24 13:49 | 14.42639 | 120.58672 | 11933 ft | 252 kts | 240° |
| 2026-04-24 13:49 | 14.41772 | 120.57115 | 11418 ft | 250 kts | 240° |
| 2026-04-24 13:49 | 14.40908 | 120.55562 | 10876 ft | 248 kts | 240° |
| 2026-04-24 13:50 | 14.40062 | 120.54045 | 10383 ft | 246 kts | 240° |
| 2026-04-24 13:50 | 14.39198 | 120.52503 | 9882 ft | 244 kts | 240° |
| 2026-04-24 13:50 | 14.38194 | 120.51141 | 9305 ft | 244 kts | 221° |
| 2026-04-24 13:50 | 14.36854 | 120.50063 | 8737 ft | 245 kts | 218° |
| 2026-04-24 13:51 | 14.35456 | 120.49080 | 8181 ft | 244 kts | 203° |
| 2026-04-24 13:51 | 14.33800 | 120.48780 | 7618 ft | 245 kts | 171° |
| 2026-04-24 13:51 | 14.32221 | 120.49377 | 7233 ft | 241 kts | 149° |
| 2026-04-24 13:51 | 14.30837 | 120.50322 | 6854 ft | 237 kts | 134° |
| 2026-04-24 13:52 | 14.29997 | 120.51739 | 6465 ft | 233 kts | 101° |
| 2026-04-24 13:52 | 14.29878 | 120.53381 | 6159 ft | 227 kts | 88° |
| 2026-04-24 13:52 | 14.29912 | 120.54992 | 5951 ft | 223 kts | 88° |
| 2026-04-24 13:52 | 14.29956 | 120.56596 | 5737 ft | 225 kts | 88° |
| 2026-04-24 13:53 | 14.30008 | 120.58226 | 5532 ft | 229 kts | 88° |
| 2026-04-24 13:53 | 14.30066 | 120.59868 | 5324 ft | 229 kts | 88° |
| 2026-04-24 13:53 | 14.30129 | 120.61512 | 5102 ft | 229 kts | 88° |
| 2026-04-24 13:53 | 14.30244 | 120.63134 | 4886 ft | 224 kts | 76° |
| 2026-04-24 13:54 | 14.30832 | 120.64598 | 4743 ft | 219 kts | 63° |
| 2026-04-24 13:54 | 14.31539 | 120.66001 | 4664 ft | 223 kts | 63° |
| 2026-04-24 13:54 | 14.32274 | 120.67420 | 4652 ft | 227 kts | 62° |
| 2026-04-24 13:54 | 14.33037 | 120.68858 | 4500 ft | 230 kts | 62° |
| 2026-04-24 13:55 | 14.33809 | 120.70298 | 4323 ft | 229 kts | 62° |
| 2026-04-24 13:55 | 14.34580 | 120.71730 | 4136 ft | 228 kts | 62° |
| 2026-04-24 13:55 | 14.35344 | 120.73148 | 3993 ft | 223 kts | 62° |
| 2026-04-24 13:55 | 14.36080 | 120.74513 | 3880 ft | 212 kts | 62° |
| 2026-04-24 13:56 | 14.36768 | 120.75791 | 3792 ft | 197 kts | 62° |
| 2026-04-24 13:56 | 14.37422 | 120.77006 | 3671 ft | 192 kts | 62° |
| 2026-04-24 13:56 | 14.38069 | 120.78209 | 3577 ft | 191 kts | 62° |
| 2026-04-24 13:56 | 14.38652 | 120.79294 | 3481 ft | 192 kts | 62° |
| 2026-04-24 13:57 | 14.39299 | 120.80496 | 3387 ft | 192 kts | 62° |
| 2026-04-24 13:57 | 14.39948 | 120.81702 | 3301 ft | 192 kts | 62° |
| 2026-04-24 13:57 | 14.40597 | 120.82908 | 3203 ft | 193 kts | 62° |
| 2026-04-24 13:57 | 14.41249 | 120.84120 | 3066 ft | 194 kts | 62° |
| 2026-04-24 13:58 | 14.41903 | 120.85337 | 2929 ft | 191 kts | 62° |
| 2026-04-24 13:58 | 14.42522 | 120.86485 | 2747 ft | 181 kts | 62° |
| 2026-04-24 13:58 | 14.43130 | 120.87616 | 2592 ft | 181 kts | 62° |
| 2026-04-24 13:58 | 14.43738 | 120.88747 | 2420 ft | 179 kts | 62° |
| 2026-04-24 13:59 | 14.44331 | 120.89848 | 2222 ft | 168 kts | 64° |
| 2026-04-24 13:59 | 14.44879 | 120.90867 | 2015 ft | 163 kts | 64° |
| 2026-04-24 13:59 | 14.45434 | 120.91901 | 1808 ft | 166 kts | 64° |
| 2026-04-24 13:59 | 14.45990 | 120.92933 | 1699 ft | 161 kts | 64° |
| 2026-04-24 14:00 | 14.46512 | 120.93904 | 1392 ft | 154 kts | 64° |
| 2026-04-24 14:00 | 14.47031 | 120.94870 | 1196 ft | 153 kts | 64° |
| 2026-04-24 14:00 | 14.47551 | 120.95838 | 1008 ft | 155 kts | 63° |
| 2026-04-24 14:00 | 14.48070 | 120.96802 | 819 ft | 152 kts | 62° |
| 2026-04-24 14:01 | 14.48579 | 120.97753 | 642 ft | 152 kts | 65° |
| 2026-04-24 14:01 | 14.49089 | 120.98722 | 398 ft | 154 kts | 63° |
| 2026-04-24 14:01 | 14.49614 | 120.99685 | 203 ft | 154 kts | 62° |
| 2026-04-24 14:01 | 14.50128 | 121.00631 | 62 ft | 143 kts | 61° |
| 2026-04-24 14:02 | 14.50554 | 121.01393 | 64 ft | 101 kts | 60° |
| 2026-04-24 14:02 | 14.50830 | 121.01888 | 70 ft | 66 kts | 60° |
| 2026-04-24 14:02 | 14.51011 | 121.02202 | 66 ft | 33 kts | 49° |
| 2026-04-24 14:02 | 14.51111 | 121.02284 | 69 ft | 9 kts | 36° |
| 2026-04-24 14:03 | 14.51167 | 121.02306 | 72 ft | 9 kts | 355° |
| 2026-04-24 14:03 | 14.51186 | 121.02251 | 65 ft | 10 kts | 251° |
| 2026-04-24 14:03 | 14.51153 | 121.02189 | 66 ft | 10 kts | 240° |
| 2026-04-24 14:03 | 14.51119 | 121.02128 | 65 ft | 10 kts | 240° |
| 2026-04-24 14:04 | 14.51084 | 121.02066 | 63 ft | 10 kts | 240° |
| 2026-04-24 14:04 | 14.51062 | 121.02009 | 64 ft | 8 kts | 274° |
| 2026-04-24 14:04 | 14.51095 | 121.01960 | 65 ft | 9 kts | 316° |
| 2026-04-24 14:04 | 14.51144 | 121.01911 | 64 ft | 10 kts | 316° |
| 2026-04-24 14:05 | 14.51196 | 121.01859 | 63 ft | 9 kts | 315° |
| 2026-04-24 14:05 | 14.51228 | 121.01826 | 64 ft | 6 kts | 314° |
| 2026-04-24 14:05 | 14.51259 | 121.01793 | 64 ft | 6 kts | 315° |
| 2026-04-24 14:05 | 14.51290 | 121.01762 | 65 ft | 6 kts | 315° |
| 2026-04-24 14:06 | 14.51321 | 121.01730 | 65 ft | 6 kts | 315° |
| 2026-04-24 14:06 | 14.51352 | 121.01698 | 66 ft | 6 kts | 315° |
| 2026-04-24 14:06 | 14.51382 | 121.01666 | 66 ft | 6 kts | 314° |
| 2026-04-24 14:06 | 14.51412 | 121.01635 | 63 ft | 6 kts | 315° |
| 2026-04-24 14:07 | 14.51441 | 121.01606 | 64 ft | 6 kts | 315° |
| 2026-04-24 14:07 | 14.51470 | 121.01576 | 64 ft | 7 kts | 315° |
| 2026-04-24 14:07 | 14.51512 | 121.01533 | 68 ft | 9 kts | 315° |
| 2026-04-24 14:07 | 14.51554 | 121.01489 | 64 ft | 9 kts | 315° |
| 2026-04-24 14:08 | 14.51596 | 121.01446 | 63 ft | 9 kts | 315° |
| 2026-04-24 14:08 | 14.51638 | 121.01403 | 63 ft | 9 kts | 315° |
| 2026-04-24 14:08 | 14.51680 | 121.01360 | 66 ft | 9 kts | 315° |
| 2026-04-24 14:08 | 14.51722 | 121.01316 | 64 ft | 9 kts | 315° |
| 2026-04-24 14:09 | 14.51764 | 121.01273 | 65 ft | 9 kts | 315° |
| 2026-04-24 14:09 | 14.51806 | 121.01229 | 67 ft | 9 kts | 315° |
| 2026-04-24 14:09 | 14.51856 | 121.01228 | 67 ft | 7 kts | 31° |
| 2026-04-24 14:09 | 14.51890 | 121.01263 | 63 ft | 7 kts | 45° |
| 2026-04-24 14:10 | 14.51896 | 121.01270 | 65 ft | 0 kts | 45° |